Observation data for Bootleg on 02/22/2019      Previous  Date  Next       Current Mesonet Observations  Soil Data  Daily Summary Page  Observations in Plain Language
KBO1 220600Z 12013KT 03/M05 A2988 RMK A01 T00301045  RH  058%=      5-min Rain = 0
KBO1 220601Z 12012KT 03/M05 A2988 RMK A01 T00301045  RH  058%=      5-min Rain = 0
KBO1 220602Z 12012KT 03/M05 A2988 RMK A01 T00291045  RH  058%=      5-min Rain = 0
KBO1 220603Z 12012KT 03/M05 A2988 RMK A01 T00281046  RH  058%=      5-min Rain = 0
KBO1 220604Z 12011KT 03/M05 A2988 RMK A01 T00281046  RH  058%=      5-min Rain = 0
KBO1 220605Z 12011KT 03/M05 A2988 RMK A01 T00271047  RH  058%=      5-min Rain = 0
KBO1 220606Z 12012KT 03/M05 A2988 RMK A01 T00261047  RH  059%=      5-min Rain = 0
KBO1 220607Z 12012KT 03/M05 A2988 RMK A01 T00261047  RH  059%=      5-min Rain = 0
KBO1 220608Z 13012KT 03/M05 A2988 RMK A01 T00261047  RH  059%=      5-min Rain = 0
KBO1 220609Z 13011KT 03/M05 A2988 RMK A01 T00261047  RH  058%=      5-min Rain = 0
KBO1 220610Z 13011KT 03/M05 A2988 RMK A01 T00251048  RH  058%=      5-min Rain = 0
KBO1 220611Z 13013KT 03/M05 A2988 RMK A01 T00251048  RH  059%=      5-min Rain = 0
KBO1 220612Z 13011KT 02/M05 A2988 RMK A01 T00241048  RH  059%=      5-min Rain = 0
KBO1 220613Z 13011KT 02/M05 A2988 RMK A01 T00241049  RH  059%=      5-min Rain = 0
KBO1 220614Z 13012KT 02/M05 A2988 RMK A01 T00241049  RH  059%=      5-min Rain = 0
KBO1 220615Z 13010KT 02/M05 A2988 RMK A01 T00231049  RH  059%=      5-min Rain = 0
KBO1 220616Z 13010KT 02/M05 A2988 RMK A01 T00221049  RH  059%=      5-min Rain = 0
KBO1 220617Z 13011KT 02/M05 A2988 RMK A01 T00221050  RH  059%=      5-min Rain = 0
KBO1 220618Z 13011KT 02/M05 A2988 RMK A01 T00211050  RH  059%=      5-min Rain = 0
KBO1 220619Z 13011KT 02/M05 A2988 RMK A01 T00211050  RH  059%=      5-min Rain = 0
KBO1 220620Z 13011KT 02/M05 A2988 RMK A01 T00211050  RH  059%=      5-min Rain = 0
KBO1 220621Z 13011KT 02/M05 A2988 RMK A01 T00211050  RH  059%=      5-min Rain = 0
KBO1 220622Z 13011KT 02/M05 A2988 RMK A01 T00201051  RH  059%=      5-min Rain = 0
KBO1 220623Z 13012KT 02/M05 A2988 RMK A01 T00191051  RH  060%=      5-min Rain = 0
KBO1 220624Z 13012KT 02/M05 A2988 RMK A01 T00191051  RH  060%=      5-min Rain = 0
KBO1 220625Z 13011KT 02/M05 A2988 RMK A01 T00181051  RH  060%=      5-min Rain = 0
KBO1 220626Z 13012KT 02/M05 A2989 RMK A01 T00181052  RH  060%=      5-min Rain = 0
KBO1 220627Z 13013KT 02/M05 A2989 RMK A01 T00181052  RH  060%=      5-min Rain = 0
KBO1 220628Z 13013KT 02/M05 A2989 RMK A01 T00181052  RH  060%=      5-min Rain = 0
KBO1 220629Z 13013KT 02/M05 A2989 RMK A01 T00181052  RH  059%=      5-min Rain = 0
KBO1 220630Z 13013KT 02/M05 A2989 RMK A01 T00181052  RH  059%=      5-min Rain = 0
KBO1 220631Z 13012KT 02/M05 A2989 RMK A01 T00181053  RH  059%=      5-min Rain = 0
KBO1 220632Z 13011KT 02/M05 A2989 RMK A01 T00181053  RH  059%=      5-min Rain = 0
KBO1 220633Z 13011KT 02/M05 A2989 RMK A01 T00171053  RH  060%=      5-min Rain = 0
KBO1 220634Z 13011KT 02/M05 A2989 RMK A01 T00171053  RH  060%=      5-min Rain = 0
KBO1 220635Z 13012KT 02/M05 A2989 RMK A01 T00161054  RH  060%=      5-min Rain = 0
KBO1 220636Z 13013KT 02/M05 A2989 RMK A01 T00151054  RH  060%=      5-min Rain = 0
KBO1 220637Z 13014KT 01/M05 A2989 RMK A01 T00141054  RH  061%=      5-min Rain = 0
KBO1 220638Z 12013KT 01/M05 A2989 RMK A01 T00141053  RH  061%=      5-min Rain = 0
KBO1 220639Z 12014KT 01/M05 A2989 RMK A01 T00141053  RH  061%=      5-min Rain = 0
KBO1 220640Z 12014KT 01/M05 A2989 RMK A01 T00141053  RH  061%=      5-min Rain = 0
KBO1 220641Z 12013KT 01/M05 A2988 RMK A01 T00141053  RH  061%=      5-min Rain = 0
KBO1 220642Z 12013KT 01/M05 A2988 RMK A01 T00141054  RH  061%=      5-min Rain = 0
KBO1 220643Z 12013KT 01/M05 A2988 RMK A01 T00141054  RH  061%=      5-min Rain = 0
KBO1 220644Z 12013KT 01/M05 A2988 RMK A01 T00131054  RH  061%=      5-min Rain = 0
KBO1 220645Z 12013KT 01/M06 A2988 RMK A01 T00121055  RH  061%=      5-min Rain = 0
KBO1 220646Z 12012KT 01/M06 A2988 RMK A01 T00121055  RH  061%=      5-min Rain = 0
KBO1 220647Z 12012KT 01/M06 A2988 RMK A01 T00121055  RH  061%=      5-min Rain = 0
KBO1 220648Z 12012KT 01/M06 A2988 RMK A01 T00111056  RH  061%=      5-min Rain = 0
KBO1 220649Z 12012KT 01/M06 A2988 RMK A01 T00121055  RH  061%=      5-min Rain = 0
KBO1 220650Z 13012KT 01/M06 A2988 RMK A01 T00111056  RH  061%=      5-min Rain = 0
KBO1 220651Z 12012KT 01/M06 A2988 RMK A01 T00111056  RH  061%=      5-min Rain = 0
KBO1 220652Z 12011KT 01/M06 A2988 RMK A01 T00101057  RH  061%=      5-min Rain = 0
KBO1 220653Z 12010KT 01/M06 A2988 RMK A01 T00091058  RH  061%=      5-min Rain = 0
KBO1 220654Z 12011KT 01/M06 A2988 RMK A01 T00081058  RH  061%=      5-min Rain = 0
KBO1 220655Z 12009KT 01/M06 A2987 RMK A01 T00071059  RH  061%=      5-min Rain = 0
KBO1 220656Z 12010KT 01/M06 A2988 RMK A01 T00061059  RH  062%=      5-min Rain = 0
KBO1 220657Z 12010KT 01/M06 A2988 RMK A01 T00051059  RH  062%=      5-min Rain = 0
KBO1 220658Z 12011KT 00/M06 A2988 RMK A01 T00041059  RH  062%=      5-min Rain = 0
KBO1 220659Z 12010KT 00/M06 A2988 RMK A01 T00031060  RH  063%=      5-min Rain = 0
KBO1 220700Z 12010KT 00/M06 A2988 RMK A01 T00021060  RH  063%=      5-min Rain = 0
KBO1 220701Z 12010KT 00/M06 A2987 RMK A01 T00011060  RH  063%=      5-min Rain = 0
KBO1 220702Z 11010KT 00/06 A2987 RMK A01 T00-00-60  RH  064%=      5-min Rain = 0
KBO1 220703Z 11010KT M00/M06 A2987 RMK A01 T10011060  RH  064%=      5-min Rain = 0
KBO1 220704Z 11010KT M00/M06 A2987 RMK A01 T10021060  RH  065%=      5-min Rain = 0
KBO1 220705Z 12010KT M00/M06 A2987 RMK A01 T10031060  RH  065%=      5-min Rain = 0
KBO1 220706Z 12010KT M00/M06 A2987 RMK A01 T10031060  RH  065%=      5-min Rain = 0
KBO1 220707Z 12011KT M00/M06 A2987 RMK A01 T10041060  RH  066%=      5-min Rain = 0
KBO1 220708Z 12011KT M00/M06 A2987 RMK A01 T10041060  RH  066%=      5-min Rain = 0
KBO1 220709Z 12011KT M00/M06 A2987 RMK A01 T10041061  RH  065%=      5-min Rain = 0
KBO1 220710Z 12011KT M00/M06 A2987 RMK A01 T10041061  RH  065%=      5-min Rain = 0
KBO1 220711Z 12011KT M00/M06 A2987 RMK A01 T10041061  RH  065%=      5-min Rain = 0
KBO1 220712Z 13011KT M00/M06 A2987 RMK A01 T10041061  RH  065%=      5-min Rain = 0
KBO1 220713Z 13011KT M00/M06 A2988 RMK A01 T10041061  RH  065%=      5-min Rain = 0
KBO1 220714Z 13011KT M00/M06 A2988 RMK A01 T10041061  RH  065%=      5-min Rain = 0
KBO1 220715Z 13011KT M01/M06 A2988 RMK A01 T10051062  RH  065%=      5-min Rain = 0
KBO1 220716Z 13011KT M01/M06 A2988 RMK A01 T10051062  RH  066%=      5-min Rain = 0
KBO1 220717Z 13010KT M01/M06 A2988 RMK A01 T10051062  RH  066%=      5-min Rain = 0
KBO1 220718Z 13010KT M01/M06 A2988 RMK A01 T10061062  RH  066%=      5-min Rain = 0
KBO1 220719Z 13010KT M01/M06 A2988 RMK A01 T10071062  RH  066%=      5-min Rain = 0
KBO1 220720Z 13010KT M01/M06 A2988 RMK A01 T10071063  RH  066%=      5-min Rain = 0
KBO1 220721Z 13009KT M01/M06 A2988 RMK A01 T10081063  RH  066%=      5-min Rain = 0
KBO1 220722Z 12009KT M01/M06 A2988 RMK A01 T10091063  RH  067%=      5-min Rain = 0
KBO1 220723Z 12010KT M01/M06 A2988 RMK A01 T10091063  RH  067%=      5-min Rain = 0
KBO1 220724Z 12009KT M01/M06 A2988 RMK A01 T10101063  RH  067%=      5-min Rain = 0
KBO1 220725Z 12009KT M01/M06 A2988 RMK A01 T10101063  RH  067%=      5-min Rain = 0
KBO1 220726Z 12010KT M01/M06 A2988 RMK A01 T10101063  RH  067%=      5-min Rain = 0
KBO1 220727Z 11009KT M01/M06 A2988 RMK A01 T10101063  RH  067%=      5-min Rain = 0
KBO1 220728Z 11009KT M01/M06 A2988 RMK A01 T10111063  RH  068%=      5-min Rain = 0
KBO1 220729Z 11009KT M01/M06 A2988 RMK A01 T10111063  RH  068%=      5-min Rain = 0
KBO1 220730Z 12010KT M01/M06 A2988 RMK A01 T10121064  RH  068%=      5-min Rain = 0
KBO1 220731Z 12010KT M01/M06 A2988 RMK A01 T10131064  RH  068%=      5-min Rain = 0
KBO1 220732Z 12010KT M01/M06 A2988 RMK A01 T10131064  RH  068%=      5-min Rain = 0
KBO1 220733Z 12009KT M01/M06 A2988 RMK A01 T10131064  RH  068%=      5-min Rain = 0
KBO1 220734Z 11009KT M01/M06 A2988 RMK A01 T10131064  RH  069%=      5-min Rain = 0
KBO1 220735Z 12010KT M01/M06 A2988 RMK A01 T10131064  RH  069%=      5-min Rain = 0
KBO1 220736Z 12010KT M01/M06 A2988 RMK A01 T10131063  RH  069%=      5-min Rain = 0
KBO1 220737Z 12009KT M01/M06 A2988 RMK A01 T10131063  RH  069%=      5-min Rain = 0
KBO1 220738Z 12009KT M01/M06 A2988 RMK A01 T10131063  RH  069%=      5-min Rain = 0
KBO1 220739Z 12010KT M01/M06 A2989 RMK A01 T10131063  RH  069%=      5-min Rain = 0
KBO1 220740Z 12010KT M01/M06 A2989 RMK A01 T10121062  RH  069%=      5-min Rain = 0
KBO1 220741Z 12010KT M01/M06 A2989 RMK A01 T10121062  RH  069%=      5-min Rain = 0
KBO1 220742Z 12010KT M01/M06 A2988 RMK A01 T10121062  RH  069%=      5-min Rain = 0
KBO1 220743Z 12009KT M01/M06 A2988 RMK A01 T10111062  RH  069%=      5-min Rain = 0
KBO1 220744Z 12011KT M01/M06 A2989 RMK A01 T10111062  RH  069%=      5-min Rain = 0
KBO1 220745Z 13010KT M01/M06 A2989 RMK A01 T10111061  RH  069%=      5-min Rain = 0
KBO1 220746Z 13010KT M01/M06 A2989 RMK A01 T10101061  RH  068%=      5-min Rain = 0
KBO1 220747Z 13010KT M01/M06 A2988 RMK A01 T10101061  RH  068%=      5-min Rain = 0
KBO1 220748Z 12009KT M01/M06 A2988 RMK A01 T10101061  RH  068%=      5-min Rain = 0
KBO1 220749Z 12010KT M01/M06 A2988 RMK A01 T10101061  RH  068%=      5-min Rain = 0
KBO1 220750Z 12009KT M01/M06 A2988 RMK A01 T10101061  RH  068%=      5-min Rain = 0
KBO1 220751Z 12009KT M01/M06 A2988 RMK A01 T10101061  RH  068%=      5-min Rain = 0
KBO1 220752Z 12010KT M01/M06 A2988 RMK A01 T10111061  RH  068%=      5-min Rain = 0
KBO1 220753Z 12009KT M01/M06 A2988 RMK A01 T10111061  RH  069%=      5-min Rain = 0
KBO1 220754Z 12010KT M01/M06 A2988 RMK A01 T10111061  RH  069%=      5-min Rain = 0
KBO1 220755Z 12009KT M01/M06 A2988 RMK A01 T10111061  RH  069%=      5-min Rain = 0
KBO1 220756Z 11009KT M01/M06 A2988 RMK A01 T10111061  RH  069%=      5-min Rain = 0
KBO1 220757Z 11009KT M01/M06 A2988 RMK A01 T10101061  RH  069%=      5-min Rain = 0
KBO1 220758Z 12009KT M01/M06 A2989 RMK A01 T10101060  RH  069%=      5-min Rain = 0
KBO1 220759Z 12010KT M01/M06 A2989 RMK A01 T10101060  RH  069%=      5-min Rain = 0
KBO1 220800Z 11009KT M01/M06 A2988 RMK A01 T10091060  RH  069%=      5-min Rain = 0
KBO1 220801Z 11010KT M01/M06 A2988 RMK A01 T10081059  RH  069%=      5-min Rain = 0
KBO1 220802Z 11010KT M01/M06 A2988 RMK A01 T10071058  RH  068%=      5-min Rain = 0
KBO1 220803Z 11009KT M01/M06 A2988 RMK A01 T10071058  RH  068%=      5-min Rain = 0
KBO1 220804Z 11009KT M01/M06 A2988 RMK A01 T10061058  RH  068%=      5-min Rain = 0
KBO1 220805Z 11009KT M01/M06 A2988 RMK A01 T10051058  RH  068%=      5-min Rain = 0
KBO1 220806Z 11008KT M01/M06 A2988 RMK A01 T10051058  RH  068%=      5-min Rain = 0
KBO1 220807Z 10008KT M01/M06 A2988 RMK A01 T10051057  RH  067%=      5-min Rain = 0
KBO1 220808Z 11009KT M00/M06 A2988 RMK A01 T10041057  RH  067%=      5-min Rain = 0
KBO1 220809Z 11010KT M00/M06 A2988 RMK A01 T10041057  RH  068%=      5-min Rain = 0
KBO1 220810Z 11008KT M00/M06 A2988 RMK A01 T10041057  RH  068%=      5-min Rain = 0
KBO1 220811Z 11009KT M01/M06 A2988 RMK A01 T10051057  RH  068%=      5-min Rain = 0
KBO1 220812Z 11008KT M01/M06 A2988 RMK A01 T10051057  RH  068%=      5-min Rain = 0
KBO1 220813Z 11010KT M00/M06 A2988 RMK A01 T10041057  RH  068%=      5-min Rain = 0
KBO1 220814Z 11010KT M00/M06 A2988 RMK A01 T10041057  RH  068%=      5-min Rain = 0
KBO1 220815Z 11010KT M01/M06 A2988 RMK A01 T10051057  RH  068%=      5-min Rain = 0
KBO1 220816Z 12009KT M00/M06 A2988 RMK A01 T10041057  RH  068%=      5-min Rain = 0
KBO1 220817Z 12009KT M00/M06 A2988 RMK A01 T10041057  RH  068%=      5-min Rain = 0
KBO1 220818Z 12009KT M00/M06 A2988 RMK A01 T10041056  RH  068%=      5-min Rain = 0
KBO1 220819Z 12010KT M00/M06 A2988 RMK A01 T10041056  RH  068%=      5-min Rain = 0
KBO1 220820Z 12009KT M00/M06 A2988 RMK A01 T10041056  RH  068%=      5-min Rain = 0
KBO1 220821Z 12009KT M00/M06 A2988 RMK A01 T10031056  RH  068%=      5-min Rain = 0
KBO1 220822Z 12010KT M00/M06 A2988 RMK A01 T10041056  RH  068%=      5-min Rain = 0
KBO1 220823Z 12009KT M00/M06 A2988 RMK A01 T10031056  RH  068%=      5-min Rain = 0
KBO1 220824Z 11009KT M00/M06 A2988 RMK A01 T10031056  RH  068%=      5-min Rain = 0
KBO1 220825Z 12009KT M00/M06 A2988 RMK A01 T10031056  RH  068%=      5-min Rain = 0
KBO1 220826Z 12009KT M00/M06 A2988 RMK A01 T10031056  RH  068%=      5-min Rain = 0
KBO1 220827Z 12009KT M00/M06 A2988 RMK A01 T10031056  RH  068%=      5-min Rain = 0
KBO1 220828Z 12008KT M00/M06 A2988 RMK A01 T10031055  RH  068%=      5-min Rain = 0
KBO1 220829Z 11009KT M00/M06 A2988 RMK A01 T10031055  RH  068%=      5-min Rain = 0
KBO1 220830Z 12009KT M00/M06 A2988 RMK A01 T10031055  RH  068%=      5-min Rain = 0
KBO1 220831Z 12008KT M00/M06 A2988 RMK A01 T10031055  RH  068%=      5-min Rain = 0
KBO1 220832Z 12009KT M00/M06 A2988 RMK A01 T10041055  RH  068%=      5-min Rain = 0
KBO1 220833Z 12009KT M00/M06 A2988 RMK A01 T10031055  RH  068%=      5-min Rain = 0
KBO1 220834Z 12009KT M00/M06 A2988 RMK A01 T10031055  RH  068%=      5-min Rain = 0
KBO1 220835Z 12009KT M00/M06 A2988 RMK A01 T10041055  RH  068%=      5-min Rain = 0
KBO1 220836Z 12008KT M00/M06 A2988 RMK A01 T10041055  RH  068%=      5-min Rain = 0
KBO1 220837Z 12008KT M01/M06 A2988 RMK A01 T10051055  RH  069%=      5-min Rain = 0
KBO1 220838Z 12007KT M01/M06 A2988 RMK A01 T10051055  RH  069%=      5-min Rain = 0
KBO1 220839Z 12008KT M01/M06 A2988 RMK A01 T10051055  RH  069%=      5-min Rain = 0
KBO1 220840Z 12008KT M01/M06 A2988 RMK A01 T10061055  RH  069%=      5-min Rain = 0
KBO1 220841Z 12008KT M01/M06 A2988 RMK A01 T10061055  RH  069%=      5-min Rain = 0
KBO1 220842Z 12008KT M01/M06 A2988 RMK A01 T10061055  RH  069%=      5-min Rain = 0
KBO1 220843Z 12008KT M01/M06 A2988 RMK A01 T10061055  RH  069%=      5-min Rain = 0
KBO1 220844Z 12009KT M01/M06 A2988 RMK A01 T10061055  RH  070%=      5-min Rain = 0
KBO1 220845Z 12009KT M01/M06 A2988 RMK A01 T10061055  RH  070%=      5-min Rain = 0
KBO1 220846Z 12009KT M01/M06 A2988 RMK A01 T10061055  RH  070%=      5-min Rain = 0
KBO1 220847Z 12009KT M01/M05 A2988 RMK A01 T10061054  RH  070%=      5-min Rain = 0
KBO1 220848Z 12008KT M01/M05 A2988 RMK A01 T10061054  RH  070%=      5-min Rain = 0
KBO1 220849Z 12008KT M01/M05 A2988 RMK A01 T10061054  RH  070%=      5-min Rain = 0
KBO1 220850Z 12009KT M01/M05 A2988 RMK A01 T10061054  RH  070%=      5-min Rain = 0
KBO1 220851Z 13009KT M01/M05 A2988 RMK A01 T10061054  RH  070%=      5-min Rain = 0
KBO1 220852Z 13009KT M01/M05 A2988 RMK A01 T10061054  RH  070%=      5-min Rain = 0
KBO1 220853Z 13009KT M01/M05 A2988 RMK A01 T10061054  RH  070%=      5-min Rain = 0
KBO1 220854Z 12009KT M01/M05 A2988 RMK A01 T10061054  RH  070%=      5-min Rain = 0
KBO1 220855Z 13009KT M01/M05 A2988 RMK A01 T10061054  RH  070%=      5-min Rain = 0
KBO1 220856Z 12009KT M01/M05 A2988 RMK A01 T10061054  RH  070%=      5-min Rain = 0
KBO1 220857Z 13009KT M01/M05 A2988 RMK A01 T10061054  RH  070%=      5-min Rain = 0
KBO1 220858Z 13009KT M01/M06 A2988 RMK A01 T10071055  RH  070%=      5-min Rain = 0
KBO1 220859Z 13009KT M01/M06 A2988 RMK A01 T10071055  RH  070%=      5-min Rain = 0
KBO1 220900Z 13009KT M01/M06 A2988 RMK A01 T10071055  RH  070%=      5-min Rain = 0
KBO1 220901Z 13009KT M01/M06 A2988 RMK A01 T10081055  RH  070%=      5-min Rain = 0
KBO1 220902Z 13010KT M01/M06 A2988 RMK A01 T10081055  RH  071%=      5-min Rain = 0
KBO1 220903Z 13009KT M01/M05 A2988 RMK A01 T10071054  RH  071%=      5-min Rain = 0
KBO1 220904Z 13009KT M01/M05 A2988 RMK A01 T10071054  RH  071%=      5-min Rain = 0
KBO1 220905Z 13008KT M01/M05 A2988 RMK A01 T10071054  RH  071%=      5-min Rain = 0
KBO1 220906Z 13008KT M01/M05 A2988 RMK A01 T10081054  RH  071%=      5-min Rain = 0
KBO1 220907Z 13009KT M01/M06 A2988 RMK A01 T10081055  RH  071%=      5-min Rain = 0
KBO1 220908Z 13009KT M01/M06 A2989 RMK A01 T10081055  RH  071%=      5-min Rain = 0
KBO1 220909Z 14009KT M01/M06 A2989 RMK A01 T10091055  RH  071%=      5-min Rain = 0
KBO1 220910Z 14010KT M01/M05 A2989 RMK A01 T10091054  RH  071%=      5-min Rain = 0
KBO1 220911Z 14009KT M01/M06 A2989 RMK A01 T10091055  RH  071%=      5-min Rain = 0
KBO1 220912Z 13010KT M01/M05 A2988 RMK A01 T10081054  RH  071%=      5-min Rain = 0
KBO1 220913Z 13008KT M01/M05 A2988 RMK A01 T10081054  RH  071%=      5-min Rain = 0
KBO1 220914Z 13009KT M01/M05 A2988 RMK A01 T10071054  RH  071%=      5-min Rain = 0
KBO1 220915Z 14009KT M01/M05 A2988 RMK A01 T10061053  RH  071%=      5-min Rain = 0
KBO1 220916Z 13010KT M01/M05 A2988 RMK A01 T10051052  RH  071%=      5-min Rain = 0
KBO1 220917Z 12011KT M00/M05 A2988 RMK A01 T10041051  RH  071%=      5-min Rain = 0
KBO1 220918Z 12011KT M00/M05 A2987 RMK A01 T10031050  RH  071%=      5-min Rain = 0
KBO1 220919Z 12011KT M00/M05 A2987 RMK A01 T10021050  RH  070%=      5-min Rain = 0
KBO1 220920Z 13011KT M00/M05 A2987 RMK A01 T10011050  RH  070%=      5-min Rain = 0
KBO1 220921Z 14010KT M00/M05 A2988 RMK A01 T10011050  RH  070%=      5-min Rain = 0
KBO1 220922Z 14010KT M00/M05 A2988 RMK A01 T10011050  RH  070%=      5-min Rain = 0
KBO1 220923Z 13011KT M00/M05 A2988 RMK A01 T10011050  RH  070%=      5-min Rain = 0
KBO1 220924Z 13010KT M00/M05 A2988 RMK A01 T10011049  RH  070%=      5-min Rain = 0
KBO1 220925Z 13010KT M00/M05 A2988 RMK A01 T10011050  RH  070%=      5-min Rain = 0
KBO1 220926Z 13010KT M00/M05 A2988 RMK A01 T10011050  RH  070%=      5-min Rain = 0
KBO1 220927Z 13011KT M00/M05 A2988 RMK A01 T10011049  RH  070%=      5-min Rain = 0
KBO1 220928Z 13012KT M00/M05 A2988 RMK A01 T10011049  RH  070%=      5-min Rain = 0
KBO1 220929Z 13011KT 00/05 A2988 RMK A01 T00-00-49  RH  070%=      5-min Rain = 0
KBO1 220930Z 13012KT 00/05 A2988 RMK A01 T00-00-49  RH  070%=      5-min Rain = 0
KBO1 220931Z 13011KT 00/05 A2988 RMK A01 T00-00-49  RH  070%=      5-min Rain = 0
KBO1 220932Z 14012KT M00/M05 A2988 RMK A01 T10011049  RH  070%=      5-min Rain = 0
KBO1 220933Z 13012KT 00/05 A2988 RMK A01 T00-00-49  RH  070%=      5-min Rain = 0
KBO1 220934Z 13011KT M00/M05 A2989 RMK A01 T10011049  RH  070%=      5-min Rain = 0
KBO1 220935Z 13010KT M00/M05 A2988 RMK A01 T10011049  RH  070%=      5-min Rain = 0
KBO1 220936Z 13010KT M00/M05 A2988 RMK A01 T10011049  RH  070%=      5-min Rain = 0
KBO1 220937Z 13010KT M00/M05 A2988 RMK A01 T10021049  RH  070%=      5-min Rain = 0
KBO1 220938Z 13010KT M00/M05 A2988 RMK A01 T10021049  RH  071%=      5-min Rain = 0
KBO1 220939Z 13010KT M00/M05 A2988 RMK A01 T10031049  RH  071%=      5-min Rain = 0
KBO1 220940Z 13010KT M00/M05 A2988 RMK A01 T10031049  RH  071%=      5-min Rain = 0
KBO1 220941Z 13009KT M00/M05 A2988 RMK A01 T10041049  RH  071%=      5-min Rain = 0
KBO1 220942Z 13009KT M00/M05 A2988 RMK A01 T10041049  RH  072%=      5-min Rain = 0
KBO1 220943Z 13010KT M00/M05 A2988 RMK A01 T10041049  RH  072%=      5-min Rain = 0
KBO1 220944Z 13010KT M00/M05 A2988 RMK A01 T10041049  RH  072%=      5-min Rain = 0
KBO1 220945Z 13009KT M00/M05 A2988 RMK A01 T10041049  RH  072%=      5-min Rain = 0
KBO1 220946Z 13009KT M01/M05 A2988 RMK A01 T10051049  RH  072%=      5-min Rain = 0
KBO1 220947Z 13009KT M01/M05 A2988 RMK A01 T10051049  RH  072%=      5-min Rain = 0
KBO1 220948Z 13008KT M01/M05 A2988 RMK A01 T10051049  RH  072%=      5-min Rain = 0
KBO1 220949Z 13008KT M01/M05 A2988 RMK A01 T10051049  RH  072%=      5-min Rain = 0
KBO1 220950Z 13009KT M01/M05 A2988 RMK A01 T10051049  RH  072%=      5-min Rain = 0
KBO1 220951Z 13009KT M01/M05 A2988 RMK A01 T10061050  RH  072%=      5-min Rain = 0
KBO1 220952Z 13009KT M01/M05 A2988 RMK A01 T10071050  RH  073%=      5-min Rain = 0
KBO1 220953Z 13008KT M01/M05 A2988 RMK A01 T10071049  RH  073%=      5-min Rain = 0
KBO1 220954Z 13010KT M01/M05 A2988 RMK A01 T10071049  RH  073%=      5-min Rain = 0
KBO1 220955Z 13010KT M01/M05 A2988 RMK A01 T10071049  RH  073%=      5-min Rain = 0
KBO1 220956Z 13009KT M01/M05 A2988 RMK A01 T10071049  RH  073%=      5-min Rain = 0
KBO1 220957Z 13010KT M01/M05 A2988 RMK A01 T10081049  RH  073%=      5-min Rain = 0
KBO1 220958Z 13010KT M01/M05 A2988 RMK A01 T10081050  RH  074%=      5-min Rain = 0
KBO1 220959Z 13009KT M01/M05 A2988 RMK A01 T10091049  RH  074%=      5-min Rain = 0
KBO1 221000Z 14009KT M01/M05 A2988 RMK A01 T10091050  RH  074%=      5-min Rain = 0
KBO1 221001Z 13008KT M01/M05 A2988 RMK A01 T10101050  RH  074%=      5-min Rain = 0
KBO1 221002Z 13009KT M01/M05 A2988 RMK A01 T10101050  RH  074%=      5-min Rain = 0
KBO1 221003Z 13008KT M01/M05 A2988 RMK A01 T10111050  RH  075%=      5-min Rain = 0
KBO1 221004Z 13008KT M01/M05 A2988 RMK A01 T10111050  RH  075%=      5-min Rain = 0
KBO1 221005Z 13008KT M01/M05 A2988 RMK A01 T10111050  RH  075%=      5-min Rain = 0
KBO1 221006Z 13007KT M01/M05 A2988 RMK A01 T10111050  RH  075%=      5-min Rain = 0
KBO1 221007Z 13008KT M01/M05 A2988 RMK A01 T10121050  RH  075%=      5-min Rain = 0
KBO1 221008Z 13008KT M01/M05 A2988 RMK A01 T10121050  RH  075%=      5-min Rain = 0
KBO1 221009Z 13008KT M01/M05 A2988 RMK A01 T10121050  RH  076%=      5-min Rain = 0
KBO1 221010Z 14008KT M01/M05 A2988 RMK A01 T10121049  RH  076%=      5-min Rain = 0
KBO1 221011Z 13008KT M01/M05 A2988 RMK A01 T10131049  RH  076%=      5-min Rain = 0
KBO1 221012Z 13009KT M01/M05 A2988 RMK A01 T10131049  RH  076%=      5-min Rain = 0
KBO1 221013Z 14009KT M01/M05 A2988 RMK A01 T10121049  RH  076%=      5-min Rain = 0
KBO1 221014Z 13009KT M01/M05 A2988 RMK A01 T10131049  RH  076%=      5-min Rain = 0
KBO1 221015Z 14008KT M01/M05 A2988 RMK A01 T10131049  RH  076%=      5-min Rain = 0
KBO1 221016Z 13009KT M01/M05 A2988 RMK A01 T10131049  RH  076%=      5-min Rain = 0
KBO1 221017Z 14008KT M01/M05 A2988 RMK A01 T10131049  RH  076%=      5-min Rain = 0
KBO1 221018Z 13009KT M01/M05 A2988 RMK A01 T10121049  RH  076%=      5-min Rain = 0
KBO1 221019Z 13010KT M01/M05 A2988 RMK A01 T10121049  RH  076%=      5-min Rain = 0
KBO1 221020Z 14008KT M01/M05 A2988 RMK A01 T10121048  RH  076%=      5-min Rain = 0
KBO1 221021Z 13008KT M01/M05 A2988 RMK A01 T10131049  RH  076%=      5-min Rain = 0
KBO1 221022Z 13008KT M01/M05 A2988 RMK A01 T10131049  RH  077%=      5-min Rain = 0
KBO1 221023Z 13009KT M01/M05 A2988 RMK A01 T10131049  RH  077%=      5-min Rain = 0
KBO1 221024Z 14008KT M01/M05 A2988 RMK A01 T10131049  RH  077%=      5-min Rain = 0
KBO1 221025Z 14008KT M01/M05 A2988 RMK A01 T10131049  RH  077%=      5-min Rain = 0
KBO1 221026Z 14009KT M01/M05 A2988 RMK A01 T10131049  RH  077%=      5-min Rain = 0
KBO1 221027Z 14009KT M01/M05 A2988 RMK A01 T10131049  RH  077%=      5-min Rain = 0
KBO1 221028Z 14008KT M01/M05 A2988 RMK A01 T10141049  RH  077%=      5-min Rain = 0
KBO1 221029Z 14008KT M01/M05 A2988 RMK A01 T10141049  RH  077%=      5-min Rain = 0
KBO1 221030Z 14008KT M01/M05 A2988 RMK A01 T10141049  RH  077%=      5-min Rain = 0
KBO1 221031Z 14008KT M01/M05 A2988 RMK A01 T10141049  RH  077%=      5-min Rain = 0
KBO1 221032Z 14007KT M01/M05 A2988 RMK A01 T10141049  RH  077%=      5-min Rain = 0
KBO1 221033Z 14008KT M01/M05 A2988 RMK A01 T10141049  RH  077%=      5-min Rain = 0
KBO1 221034Z 14008KT M02/M05 A2988 RMK A01 T10151049  RH  077%=      5-min Rain = 0
KBO1 221035Z 14007KT M01/M05 A2988 RMK A01 T10141049  RH  077%=      5-min Rain = 0
KBO1 221036Z 14008KT M01/M05 A2988 RMK A01 T10141049  RH  077%=      5-min Rain = 0
KBO1 221037Z 14009KT M01/M05 A2988 RMK A01 T10141049  RH  077%=      5-min Rain = 0
KBO1 221038Z 14009KT M01/M05 A2988 RMK A01 T10141048  RH  077%=      5-min Rain = 0
KBO1 221039Z 14008KT M01/M05 A2988 RMK A01 T10141048  RH  077%=      5-min Rain = 0
KBO1 221040Z 14008KT M01/M05 A2988 RMK A01 T10141048  RH  077%=      5-min Rain = 0
KBO1 221041Z 14008KT M01/M05 A2988 RMK A01 T10131048  RH  077%=      5-min Rain = 0
KBO1 221042Z 14008KT M01/M05 A2988 RMK A01 T10131048  RH  077%=      5-min Rain = 0
KBO1 221043Z 14008KT M01/M05 A2988 RMK A01 T10131048  RH  077%=      5-min Rain = 0
KBO1 221044Z 14008KT M01/M05 A2988 RMK A01 T10131048  RH  077%=      5-min Rain = 0
KBO1 221045Z 14007KT M01/M05 A2988 RMK A01 T10141048  RH  077%=      5-min Rain = 0
KBO1 221046Z 14007KT M01/M05 A2988 RMK A01 T10131048  RH  077%=      5-min Rain = 0
KBO1 221047Z 14008KT M01/M05 A2988 RMK A01 T10141049  RH  077%=      5-min Rain = 0
KBO1 221048Z 14008KT M01/M05 A2988 RMK A01 T10131048  RH  077%=      5-min Rain = 0
KBO1 221049Z 14009KT M01/M05 A2988 RMK A01 T10131048  RH  077%=      5-min Rain = 0
KBO1 221050Z 14008KT M01/M05 A2988 RMK A01 T10131048  RH  077%=      5-min Rain = 0
KBO1 221051Z 14007KT M01/M05 A2988 RMK A01 T10131048  RH  077%=      5-min Rain = 0
KBO1 221052Z 14008KT M01/M05 A2988 RMK A01 T10131048  RH  077%=      5-min Rain = 0
KBO1 221053Z 14006KT M01/M05 A2988 RMK A01 T10131048  RH  077%=      5-min Rain = 0
KBO1 221054Z 15005KT M01/M05 A2988 RMK A01 T10131048  RH  077%=      5-min Rain = 0
KBO1 221055Z 15006KT M01/M05 A2988 RMK A01 T10131047  RH  077%=      5-min Rain = 0
KBO1 221056Z 14006KT M01/M05 A2988 RMK A01 T10131048  RH  077%=      5-min Rain = 0
KBO1 221057Z 14006KT M01/M05 A2988 RMK A01 T10131047  RH  077%=      5-min Rain = 0
KBO1 221058Z 14005KT M01/M05 A2988 RMK A01 T10131047  RH  077%=      5-min Rain = 0
KBO1 221059Z 15005KT M01/M05 A2988 RMK A01 T10131047  RH  077%=      5-min Rain = 0
KBO1 221100Z 15007KT M01/M05 A2988 RMK A01 T10131047  RH  077%=      5-min Rain = 0
KBO1 221101Z 15006KT M01/M05 A2988 RMK A01 T10121047  RH  077%=      5-min Rain = 0
KBO1 221102Z 14008KT M01/M05 A2988 RMK A01 T10121047  RH  077%=      5-min Rain = 0
KBO1 221103Z 14009KT M01/M05 A2988 RMK A01 T10121047  RH  077%=      5-min Rain = 0
KBO1 221104Z 14009KT M01/M05 A2987 RMK A01 T10121047  RH  077%=      5-min Rain = 0
KBO1 221105Z 14009KT M01/M05 A2987 RMK A01 T10121047  RH  077%=      5-min Rain = 0
KBO1 221106Z 14008KT M01/M05 A2987 RMK A01 T10121047  RH  077%=      5-min Rain = 0
KBO1 221107Z 15008KT M01/M05 A2988 RMK A01 T10111046  RH  077%=      5-min Rain = 0
KBO1 221108Z 15008KT M01/M05 A2988 RMK A01 T10121046  RH  077%=      5-min Rain = 0
KBO1 221109Z 15007KT M01/M05 A2988 RMK A01 T10111046  RH  077%=      5-min Rain = 0
KBO1 221110Z 15008KT M01/M05 A2987 RMK A01 T10111046  RH  077%=      5-min Rain = 0
KBO1 221111Z 15008KT M01/M05 A2987 RMK A01 T10121046  RH  077%=      5-min Rain = 0
KBO1 221112Z 15009KT M01/M05 A2987 RMK A01 T10121047  RH  077%=      5-min Rain = 0
KBO1 221113Z 15009KT M01/M05 A2987 RMK A01 T10121046  RH  077%=      5-min Rain = 0
KBO1 221114Z 15010KT M01/M05 A2987 RMK A01 T10121046  RH  077%=      5-min Rain = 0
KBO1 221115Z 15009KT M01/M05 A2987 RMK A01 T10121046  RH  077%=      5-min Rain = 0
KBO1 221116Z 15009KT M01/M05 A2987 RMK A01 T10121047  RH  077%=      5-min Rain = 0
KBO1 221117Z 15010KT M01/M05 A2987 RMK A01 T10121047  RH  078%=      5-min Rain = 0
KBO1 221118Z 15010KT M01/M05 A2987 RMK A01 T10131047  RH  078%=      5-min Rain = 0
KBO1 221119Z 15010KT M01/M05 A2987 RMK A01 T10131047  RH  078%=      5-min Rain = 0
KBO1 221120Z 14011KT M01/M05 A2987 RMK A01 T10131046  RH  078%=      5-min Rain = 0
KBO1 221121Z 15010KT M01/M05 A2987 RMK A01 T10131046  RH  078%=      5-min Rain = 0
KBO1 221122Z 15010KT M01/M05 A2987 RMK A01 T10131046  RH  078%=      5-min Rain = 0
KBO1 221123Z 15009KT M01/M05 A2987 RMK A01 T10131046  RH  078%=      5-min Rain = 0
KBO1 221124Z 15008KT M01/M05 A2987 RMK A01 T10141046  RH  078%=      5-min Rain = 0
KBO1 221125Z 15009KT M01/M05 A2987 RMK A01 T10141047  RH  078%=      5-min Rain = 0
KBO1 221126Z 15009KT M01/M05 A2987 RMK A01 T10141047  RH  078%=      5-min Rain = 0
KBO1 221127Z 15010KT M01/M05 A2987 RMK A01 T10141047  RH  078%=      5-min Rain = 0
KBO1 221128Z 15011KT M01/M05 A2987 RMK A01 T10141047  RH  079%=      5-min Rain = 0
KBO1 221129Z 15010KT M02/M05 A2987 RMK A01 T10151047  RH  079%=      5-min Rain = 0
KBO1 221130Z 15010KT M02/M05 A2987 RMK A01 T10151047  RH  079%=      5-min Rain = 0
KBO1 221131Z 15010KT M02/M05 A2987 RMK A01 T10151047  RH  079%=      5-min Rain = 0
KBO1 221132Z 15010KT M02/M05 A2987 RMK A01 T10161047  RH  079%=      5-min Rain = 0
KBO1 221133Z 16009KT M02/M05 A2987 RMK A01 T10161047  RH  079%=      5-min Rain = 0
KBO1 221134Z 15009KT M02/M05 A2987 RMK A01 T10161047  RH  079%=      5-min Rain = 0
KBO1 221135Z 15008KT M02/M05 A2987 RMK A01 T10161047  RH  079%=      5-min Rain = 0
KBO1 221136Z 15008KT M02/M05 A2987 RMK A01 T10161047  RH  080%=      5-min Rain = 0
KBO1 221137Z 16008KT M02/M05 A2987 RMK A01 T10161046  RH  080%=      5-min Rain = 0
KBO1 221138Z 15009KT M02/M05 A2987 RMK A01 T10161046  RH  080%=      5-min Rain = 0
KBO1 221139Z 15010KT M02/M05 A2987 RMK A01 T10161046  RH  080%=      5-min Rain = 0
KBO1 221140Z 15010KT M02/M05 A2987 RMK A01 T10161046  RH  080%=      5-min Rain = 0
KBO1 221141Z 15010KT M02/M05 A2987 RMK A01 T10161046  RH  080%=      5-min Rain = 0
KBO1 221142Z 15009KT M02/M05 A2987 RMK A01 T10161045  RH  081%=      5-min Rain = 0
KBO1 221143Z 16009KT M02/M04 A2987 RMK A01 T10151044  RH  081%=      5-min Rain = 0
KBO1 221144Z 16009KT M02/M05 A2987 RMK A01 T10151045  RH  080%=      5-min Rain = 0
KBO1 221145Z 16009KT M02/M04 A2987 RMK A01 T10151044  RH  081%=      5-min Rain = 0
KBO1 221146Z 16008KT M02/M04 A2987 RMK A01 T10151044  RH  081%=      5-min Rain = 0
KBO1 221147Z 16009KT M02/M04 A2987 RMK A01 T10151044  RH  081%=      5-min Rain = 0
KBO1 221148Z 16009KT M02/M04 A2987 RMK A01 T10151044  RH  081%=      5-min Rain = 0
KBO1 221149Z 16010KT M01/M04 A2987 RMK A01 T10141043  RH  081%=      5-min Rain = 0
KBO1 221150Z 16010KT M01/M04 A2987 RMK A01 T10141042  RH  081%=      5-min Rain = 0
KBO1 221151Z 16009KT M01/M04 A2987 RMK A01 T10131041  RH  081%=      5-min Rain = 0
KBO1 221152Z 16009KT M01/M04 A2987 RMK A01 T10131041  RH  081%=      5-min Rain = 0
KBO1 221153Z 16010KT M01/M04 A2987 RMK A01 T10131041  RH  081%=      5-min Rain = 0
KBO1 221154Z 16009KT M01/M04 A2987 RMK A01 T10131041  RH  081%=      5-min Rain = 0
KBO1 221155Z 16009KT M01/M04 A2987 RMK A01 T10131041  RH  081%=      5-min Rain = 0
KBO1 221156Z 16010KT M01/M04 A2987 RMK A01 T10121040  RH  082%=      5-min Rain = 0
KBO1 221157Z 16009KT M01/M04 A2987 RMK A01 T10111038  RH  082%=      5-min Rain = 0
KBO1 221158Z 16010KT M01/M04 A2987 RMK A01 T10111038  RH  082%=      5-min Rain = 0
KBO1 221159Z 16010KT M01/M04 A2987 RMK A01 T10111038  RH  082%=      5-min Rain = 0
KBO1 221200Z 16011KT M01/M04 A2987 RMK A01 T10101037  RH  082%=      5-min Rain = 0
KBO1 221201Z 16010KT M01/M04 A2988 RMK A01 T10101037  RH  082%=      5-min Rain = 0
KBO1 221202Z 16009KT M01/M04 A2988 RMK A01 T10101036  RH  082%=      5-min Rain = 0
KBO1 221203Z 16010KT M01/M04 A2988 RMK A01 T10091036  RH  082%=      5-min Rain = 0
KBO1 221204Z 16011KT M01/M04 A2988 RMK A01 T10091035  RH  083%=      5-min Rain = 0
KBO1 221205Z 16011KT M01/M04 A2988 RMK A01 T10091035  RH  083%=      5-min Rain = 0
KBO1 221206Z 16011KT M01/M04 A2988 RMK A01 T10091035  RH  083%=      5-min Rain = 0
KBO1 221207Z 17010KT M01/M04 A2988 RMK A01 T10091035  RH  083%=      5-min Rain = 0
KBO1 221208Z 17009KT M01/M04 A2988 RMK A01 T10091035  RH  083%=      5-min Rain = 0
KBO1 221209Z 16011KT M01/M04 A2988 RMK A01 T10081035  RH  082%=      5-min Rain = 0
KBO1 221210Z 16010KT M01/M03 A2988 RMK A01 T10081034  RH  082%=      5-min Rain = 0
KBO1 221211Z 16009KT M01/M03 A2988 RMK A01 T10081034  RH  082%=      5-min Rain = 0
KBO1 221212Z 16010KT M01/M03 A2988 RMK A01 T10081034  RH  083%=      5-min Rain = 0
KBO1 221213Z 16010KT M01/M03 A2988 RMK A01 T10081034  RH  083%=      5-min Rain = 0
KBO1 221214Z 16010KT M01/M03 A2988 RMK A01 T10081033  RH  083%=      5-min Rain = 0
KBO1 221215Z 16009KT M01/M03 A2988 RMK A01 T10081033  RH  083%=      5-min Rain = 0
KBO1 221216Z 16008KT M01/M03 A2988 RMK A01 T10081033  RH  083%=      5-min Rain = 0
KBO1 221217Z 16007KT M01/M03 A2988 RMK A01 T10081033  RH  083%=      5-min Rain = 0
KBO1 221218Z 16008KT M01/M03 A2988 RMK A01 T10071033  RH  083%=      5-min Rain = 0
KBO1 221219Z 16008KT M01/M03 A2988 RMK A01 T10071033  RH  083%=      5-min Rain = 0
KBO1 221220Z 16009KT M01/M03 A2988 RMK A01 T10071033  RH  083%=      5-min Rain = 0
KBO1 221221Z 16010KT M01/M03 A2988 RMK A01 T10071033  RH  083%=      5-min Rain = 0
KBO1 221222Z 16008KT M01/M03 A2988 RMK A01 T10081033  RH  083%=      5-min Rain = 0
KBO1 221223Z 16008KT M01/M03 A2988 RMK A01 T10071033  RH  083%=      5-min Rain = 0
KBO1 221224Z 16008KT M01/M03 A2988 RMK A01 T10071032  RH  083%=      5-min Rain = 0
KBO1 221225Z 16008KT M01/M03 A2988 RMK A01 T10071032  RH  083%=      5-min Rain = 0
KBO1 221226Z 16008KT M01/M03 A2989 RMK A01 T10071032  RH  083%=      5-min Rain = 0
KBO1 221227Z 15009KT M01/M03 A2989 RMK A01 T10071032  RH  083%=      5-min Rain = 0
KBO1 221228Z 16008KT M01/M03 A2989 RMK A01 T10071032  RH  083%=      5-min Rain = 0
KBO1 221229Z 15008KT M01/M03 A2989 RMK A01 T10071032  RH  083%=      5-min Rain = 0
KBO1 221230Z 16009KT M01/M03 A2989 RMK A01 T10061032  RH  083%=      5-min Rain = 0
KBO1 221231Z 16009KT M01/M03 A2989 RMK A01 T10071031  RH  083%=      5-min Rain = 0
KBO1 221232Z 15010KT M01/M03 A2989 RMK A01 T10071031  RH  083%=      5-min Rain = 0
KBO1 221233Z 16011KT M01/M03 A2989 RMK A01 T10061031  RH  084%=      5-min Rain = 0
KBO1 221234Z 15010KT M01/M03 A2989 RMK A01 T10071031  RH  084%=      5-min Rain = 0
KBO1 221235Z 16010KT M01/M03 A2989 RMK A01 T10071031  RH  084%=      5-min Rain = 0
KBO1 221236Z 16009KT M01/M03 A2989 RMK A01 T10071030  RH  084%=      5-min Rain = 0
KBO1 221237Z 15008KT M01/M03 A2989 RMK A01 T10061030  RH  084%=      5-min Rain = 0
KBO1 221238Z 16008KT M01/M03 A2989 RMK A01 T10061030  RH  084%=      5-min Rain = 0
KBO1 221239Z 16007KT M01/M03 A2989 RMK A01 T10061029  RH  084%=      5-min Rain = 0
KBO1 221240Z 16007KT M01/M03 A2989 RMK A01 T10061029  RH  084%=      5-min Rain = 0
KBO1 221241Z 16008KT M01/M03 A2989 RMK A01 T10061029  RH  084%=      5-min Rain = 0
KBO1 221242Z 16009KT M01/M03 A2989 RMK A01 T10051029  RH  084%=      5-min Rain = 0
KBO1 221243Z 16008KT M01/M03 A2989 RMK A01 T10061029  RH  084%=      5-min Rain = 0
KBO1 221244Z 16007KT M01/M03 A2989 RMK A01 T10051028  RH  085%=      5-min Rain = 0
KBO1 221245Z 16008KT M01/M03 A2989 RMK A01 T10061029  RH  085%=      5-min Rain = 0
KBO1 221246Z 16009KT M01/M03 A2989 RMK A01 T10051028  RH  085%=      5-min Rain = 0
KBO1 221247Z 16008KT M01/M03 A299 RMK A01 T10051028  RH  085%=      5-min Rain = 0
KBO1 221248Z 16008KT M01/M03 A299 RMK A01 T10051028  RH  085%=      5-min Rain = 0
KBO1 221249Z 16007KT M01/M03 A299 RMK A01 T10061028  RH  085%=      5-min Rain = 0
KBO1 221250Z 17007KT M01/M03 A299 RMK A01 T10061028  RH  085%=      5-min Rain = 0
KBO1 221251Z 17007KT M01/M03 A299 RMK A01 T10051028  RH  085%=      5-min Rain = 0
KBO1 221252Z 17008KT M01/M03 A299 RMK A01 T10061028  RH  085%=      5-min Rain = 0
KBO1 221253Z 17006KT M01/M03 A299 RMK A01 T10061028  RH  085%=      5-min Rain = 0
KBO1 221254Z 16008KT M01/M03 A299 RMK A01 T10061027  RH  085%=      5-min Rain = 0
KBO1 221255Z 17008KT M01/M03 A299 RMK A01 T10051027  RH  085%=      5-min Rain = 0
KBO1 221256Z 17009KT M01/M03 A299 RMK A01 T10051026  RH  086%=      5-min Rain = 0
KBO1 221257Z 16010KT M01/M03 A2989 RMK A01 T10051026  RH  086%=      5-min Rain = 0
KBO1 221258Z 16009KT M01/M03 A2989 RMK A01 T10051026  RH  086%=      5-min Rain = 0
KBO1 221259Z 17010KT M01/M03 A2989 RMK A01 T10051026  RH  085%=      5-min Rain = 0
KBO1 221300Z 16011KT M00/M03 A2989 RMK A01 T10041026  RH  085%=      5-min Rain = 0
KBO1 221301Z 16012KT M00/M03 A2989 RMK A01 T10041026  RH  085%=      5-min Rain = 0
KBO1 221302Z 16012KT M01/M03 A2989 RMK A01 T10051026  RH  085%=      5-min Rain = 0
KBO1 221303Z 16012KT M01/M03 A2989 RMK A01 T10051026  RH  086%=      5-min Rain = 0
KBO1 221304Z 16012KT M01/M03 A2989 RMK A01 T10051026  RH  086%=      5-min Rain = 0
KBO1 221305Z 16010KT M01/M03 A2989 RMK A01 T10051026  RH  086%=      5-min Rain = 0
KBO1 221306Z 16009KT M01/M03 A2989 RMK A01 T10051026  RH  086%=      5-min Rain = 0
KBO1 221307Z 16009KT M01/M03 A2989 RMK A01 T10051026  RH  086%=      5-min Rain = 0
KBO1 221308Z 16009KT M01/M03 A2989 RMK A01 T10051026  RH  086%=      5-min Rain = 0
KBO1 221309Z 16007KT M01/M03 A2989 RMK A01 T10051026  RH  086%=      5-min Rain = 0
KBO1 221310Z 16008KT M01/M03 A2989 RMK A01 T10051025  RH  086%=      5-min Rain = 0
KBO1 221311Z 16008KT M01/M03 A2989 RMK A01 T10051025  RH  086%=      5-min Rain = 0
KBO1 221312Z 16008KT M01/M03 A2989 RMK A01 T10051025  RH  086%=      5-min Rain = 0
KBO1 221313Z 16009KT M01/M03 A2989 RMK A01 T10051025  RH  087%=      5-min Rain = 0
KBO1 221314Z 16008KT M01/M03 A2989 RMK A01 T10051025  RH  087%=      5-min Rain = 0
KBO1 221315Z 16008KT M01/M02 A2989 RMK A01 T10051024  RH  087%=      5-min Rain = 0
KBO1 221316Z 16009KT M01/M03 A2989 RMK A01 T10051025  RH  087%=      5-min Rain = 0
KBO1 221317Z 16008KT M01/M02 A2989 RMK A01 T10051024  RH  087%=      5-min Rain = 0
KBO1 221318Z 16009KT M01/M02 A2989 RMK A01 T10051024  RH  087%=      5-min Rain = 0
KBO1 221319Z 16008KT M01/M02 A2989 RMK A01 T10051024  RH  087%=      5-min Rain = 0
KBO1 221320Z 16007KT M01/M02 A2989 RMK A01 T10051024  RH  087%=      5-min Rain = 0
KBO1 221321Z 16009KT M01/M02 A2989 RMK A01 T10051024  RH  087%=      5-min Rain = 0
KBO1 221322Z 16009KT M01/M02 A2989 RMK A01 T10051024  RH  087%=      5-min Rain = 0
KBO1 221323Z 16008KT M01/M02 A299 RMK A01 T10051024  RH  087%=      5-min Rain = 0
KBO1 221324Z 17007KT M01/M02 A299 RMK A01 T10051024  RH  087%=      5-min Rain = 0
KBO1 221325Z 16007KT M01/M02 A299 RMK A01 T10051024  RH  087%=      5-min Rain = 0
KBO1 221326Z 16008KT M01/M02 A299 RMK A01 T10051024  RH  087%=      5-min Rain = 0
KBO1 221327Z 17007KT M01/M02 A299 RMK A01 T10051024  RH  087%=      5-min Rain = 0
KBO1 221328Z 17007KT M01/M02 A299 RMK A01 T10051024  RH  087%=      5-min Rain = 0
KBO1 221329Z 16008KT M01/M02 A299 RMK A01 T10051024  RH  087%=      5-min Rain = 0
KBO1 221330Z 16009KT M01/M02 A299 RMK A01 T10051024  RH  087%=      5-min Rain = 0
KBO1 221331Z 16008KT M01/M02 A299 RMK A01 T10051023  RH  087%=      5-min Rain = 0
KBO1 221332Z 16008KT M01/M02 A299 RMK A01 T10051024  RH  087%=      5-min Rain = 0
KBO1 221333Z 16007KT M01/M02 A299 RMK A01 T10051024  RH  087%=      5-min Rain = 0
KBO1 221334Z 15008KT M01/M02 A299 RMK A01 T10051023  RH  088%=      5-min Rain = 0
KBO1 221335Z 15007KT M01/M02 A299 RMK A01 T10051023  RH  088%=      5-min Rain = 0
KBO1 221336Z 16008KT M01/M02 A299 RMK A01 T10051023  RH  087%=      5-min Rain = 0
KBO1 221337Z 16008KT M01/M02 A299 RMK A01 T10051024  RH  087%=      5-min Rain = 0
KBO1 221338Z 16008KT M01/M02 A299 RMK A01 T10051024  RH  087%=      5-min Rain = 0
KBO1 221339Z 16008KT M01/M02 A299 RMK A01 T10061024  RH  088%=      5-min Rain = 0
KBO1 221340Z 16009KT M01/M02 A299 RMK A01 T10061023  RH  088%=      5-min Rain = 0
KBO1 221341Z 16009KT M01/M02 A299 RMK A01 T10061023  RH  088%=      5-min Rain = 0
KBO1 221342Z 16009KT M01/M02 A2991 RMK A01 T10061023  RH  089%=      5-min Rain = 0
KBO1 221343Z 16009KT M01/M02 A299 RMK A01 T10061022  RH  089%=      5-min Rain = 0
KBO1 221344Z 16010KT M01/M02 A299 RMK A01 T10071022  RH  089%=      5-min Rain = 0
KBO1 221345Z 17009KT M01/M02 A299 RMK A01 T10071022  RH  090%=      5-min Rain = 0
KBO1 221346Z 16010KT M01/M02 A299 RMK A01 T10071021  RH  090%=      5-min Rain = 0
KBO1 221347Z 17009KT M01/M02 A299 RMK A01 T10071021  RH  090%=      5-min Rain = 0
KBO1 221348Z 16009KT M01/M02 A299 RMK A01 T10071021  RH  090%=      5-min Rain = 0
KBO1 221349Z 16009KT M01/M02 A299 RMK A01 T10071021  RH  090%=      5-min Rain = 0
KBO1 221350Z 16009KT M01/M02 A299 RMK A01 T10071021  RH  090%=      5-min Rain = 0
KBO1 221351Z 16009KT M01/M02 A2991 RMK A01 T10071021  RH  090%=      5-min Rain = 0
KBO1 221352Z 17010KT M01/M02 A2991 RMK A01 T10071021  RH  090%=      5-min Rain = 0
KBO1 221353Z 17009KT M01/M02 A2991 RMK A01 T10071021  RH  090%=      5-min Rain = 0
KBO1 221354Z 16009KT M01/M02 A2991 RMK A01 T10071021  RH  090%=      5-min Rain = 0
KBO1 221355Z 16011KT M01/M02 A2991 RMK A01 T10071020  RH  091%=      5-min Rain = 0
KBO1 221356Z 17011KT M01/M02 A2991 RMK A01 T10071020  RH  091%=      5-min Rain = 0
KBO1 221357Z 17010KT M01/M02 A2991 RMK A01 T10071020  RH  091%=      5-min Rain = 0
KBO1 221358Z 17012KT M01/M02 A2991 RMK A01 T10071020  RH  091%=      5-min Rain = 0
KBO1 221359Z 17012KT M01/M02 A2991 RMK A01 T10061020  RH  091%=      5-min Rain = 0
KBO1 221400Z 16011KT M01/M02 A299 RMK A01 T10061020  RH  091%=      5-min Rain = 0
KBO1 221401Z 16010KT M01/M02 A299 RMK A01 T10061020  RH  091%=      5-min Rain = 0
KBO1 221402Z 17009KT M01/M02 A299 RMK A01 T10061019  RH  091%=      5-min Rain = 0
KBO1 221403Z 17012KT M01/M02 A299 RMK A01 T10061019  RH  091%=      5-min Rain = 0
KBO1 221404Z 16010KT M01/M02 A299 RMK A01 T10061020  RH  090%=      5-min Rain = 0
KBO1 221405Z 16010KT M01/M02 A2991 RMK A01 T10061020  RH  090%=      5-min Rain = 0
KBO1 221406Z 17011KT M01/M02 A2991 RMK A01 T10051020  RH  090%=      5-min Rain = 0
KBO1 221407Z 17011KT M01/M02 A2991 RMK A01 T10061020  RH  090%=      5-min Rain = 0
KBO1 221408Z 17011KT M01/M02 A2991 RMK A01 T10061020  RH  090%=      5-min Rain = 0
KBO1 221409Z 17009KT M01/M02 A2991 RMK A01 T10051019  RH  090%=      5-min Rain = 0
KBO1 221410Z 16009KT M01/M02 A2991 RMK A01 T10061019  RH  091%=      5-min Rain = 0
KBO1 221411Z 17009KT M01/M02 A2992 RMK A01 T10061019  RH  091%=      5-min Rain = 0
KBO1 221412Z 17010KT M01/M02 A2992 RMK A01 T10051019  RH  091%=      5-min Rain = 0
KBO1 221413Z 17009KT M01/M02 A2992 RMK A01 T10051019  RH  090%=      5-min Rain = 0
KBO1 221414Z 16009KT M01/M02 A2992 RMK A01 T10051019  RH  091%=      5-min Rain = 0
KBO1 221415Z 17009KT M01/M02 A2992 RMK A01 T10051019  RH  091%=      5-min Rain = 0
KBO1 221416Z 16007KT M01/M02 A2992 RMK A01 T10051019  RH  090%=      5-min Rain = 0
KBO1 221417Z 17008KT M01/M02 A2992 RMK A01 T10051019  RH  090%=      5-min Rain = 0
KBO1 221418Z 17009KT M01/M02 A2992 RMK A01 T10051019  RH  090%=      5-min Rain = 0
KBO1 221419Z 17007KT M01/M02 A2992 RMK A01 T10051019  RH  090%=      5-min Rain = 0
KBO1 221420Z 18010KT M00/M02 A2992 RMK A01 T10041019  RH  090%=      5-min Rain = 0
KBO1 221421Z 17010KT M00/M02 A2992 RMK A01 T10041018  RH  090%=      5-min Rain = 0
KBO1 221422Z 15010KT M00/M02 A2991 RMK A01 T10041018  RH  090%=      5-min Rain = 0
KBO1 221423Z 16011KT M00/M02 A2991 RMK A01 T10041018  RH  090%=      5-min Rain = 0
KBO1 221424Z 16010KT M00/M02 A2992 RMK A01 T10041018  RH  090%=      5-min Rain = 0
KBO1 221425Z 16009KT M00/M02 A2992 RMK A01 T10041018  RH  090%=      5-min Rain = 0
KBO1 221426Z 16011KT M00/M02 A2992 RMK A01 T10041018  RH  090%=      5-min Rain = 0
KBO1 221427Z 16012KT M00/M02 A2991 RMK A01 T10041019  RH  090%=      5-min Rain = 0
KBO1 221428Z 16013KT M01/M02 A2992 RMK A01 T10051019  RH  090%=      5-min Rain = 0
KBO1 221429Z 16012KT M01/M02 A2991 RMK A01 T10051019  RH  090%=      5-min Rain = 0
KBO1 221430Z 16010KT M01/M02 A2991 RMK A01 T10051019  RH  091%=      5-min Rain = 0
KBO1 221431Z 16011KT M01/M02 A2992 RMK A01 T10051018  RH  091%=      5-min Rain = 0
KBO1 221432Z 16012KT M01/M02 A2992 RMK A01 T10061018  RH  091%=      5-min Rain = 0
KBO1 221433Z 15010KT M01/M02 A2992 RMK A01 T10061018  RH  092%=      5-min Rain = 0
KBO1 221434Z 16010KT M01/M02 A2992 RMK A01 T10061017  RH  092%=      5-min Rain = 0
KBO1 221435Z 16009KT M01/M02 A2992 RMK A01 T10061017  RH  092%=      5-min Rain = 0
KBO1 221436Z 16011KT M01/M02 A2992 RMK A01 T10061016  RH  093%=      5-min Rain = 0
KBO1 221437Z 16009KT M01/M02 A2992 RMK A01 T10061016  RH  093%=      5-min Rain = 0
KBO1 221438Z 15008KT M01/M02 A2992 RMK A01 T10061016  RH  093%=      5-min Rain = 0
KBO1 221439Z 16009KT M01/M02 A2992 RMK A01 T10051015  RH  094%=      5-min Rain = 0
KBO1 221440Z 16010KT M01/M01 A2992 RMK A01 T10051014  RH  094%=      5-min Rain = 0
KBO1 221441Z 16009KT M01/M01 A2992 RMK A01 T10051014  RH  094%=      5-min Rain = 0
KBO1 221442Z 16009KT M01/M01 A2993 RMK A01 T10051014  RH  094%=      5-min Rain = 0
KBO1 221443Z 15008KT M00/M01 A2993 RMK A01 T10041013  RH  094%=      5-min Rain = 0
KBO1 221444Z 16009KT M00/M01 A2993 RMK A01 T10041012  RH  094%=      5-min Rain = 0
KBO1 221445Z 16009KT M00/M01 A2993 RMK A01 T10041012  RH  094%=      5-min Rain = 0
KBO1 221446Z 16010KT M00/M01 A2993 RMK A01 T10041012  RH  094%=      5-min Rain = 0
KBO1 221447Z 16011KT M00/M01 A2993 RMK A01 T10041012  RH  095%=      5-min Rain = 0
KBO1 221448Z 16010KT M00/M01 A2993 RMK A01 T10041012  RH  095%=      5-min Rain = 0
KBO1 221449Z 16010KT M00/M01 A2993 RMK A01 T10041012  RH  095%=      5-min Rain = 0
KBO1 221450Z 16013KT M00/M01 A2993 RMK A01 T10041011  RH  095%=      5-min Rain = 0
KBO1 221451Z 17012KT M00/M01 A2993 RMK A01 T10041011  RH  095%=      5-min Rain = 0
KBO1 221452Z 17012KT M00/M01 A2993 RMK A01 T10041010  RH  095%=      5-min Rain = 0
KBO1 221453Z 16011KT M00/M01 A2993 RMK A01 T10041011  RH  096%=      5-min Rain = 0
KBO1 221454Z 18013KT M00/M01 A2993 RMK A01 T10041010  RH  096%=      5-min Rain = 0
KBO1 221455Z 17012KT M00/M01 A2993 RMK A01 T10041010  RH  096%=      5-min Rain = 0
KBO1 221456Z 16012KT M00/M01 A2993 RMK A01 T10041009  RH  096%=      5-min Rain = 0
KBO1 221457Z 17010KT M00/M01 A2993 RMK A01 T10041009  RH  096%=      5-min Rain = 0
KBO1 221458Z 17013KT M00/M01 A2993 RMK A01 T10031008  RH  096%=      5-min Rain = 0
KBO1 221459Z 18011KT M00/M01 A2993 RMK A01 T10031008  RH  096%=      5-min Rain = 0
KBO1 221500Z 18012KT M00/M01 A2993 RMK A01 T10031008  RH  097%=      5-min Rain = 0
KBO1 221501Z 17011KT M00/M01 A2993 RMK A01 T10031008  RH  097%=      5-min Rain = 0
KBO1 221502Z 17011KT M00/M01 A2993 RMK A01 T10031008  RH  097%=      5-min Rain = 0
KBO1 221503Z 17010KT M00/M01 A2994 RMK A01 T10031008  RH  097%=      5-min Rain = 0
KBO1 221504Z 17010KT M00/M01 A2994 RMK A01 T10031008  RH  097%=      5-min Rain = 0
KBO1 221505Z 18011KT M00/M01 A2994 RMK A01 T10031007  RH  097%=      5-min Rain = 0
KBO1 221506Z 17011KT M00/M01 A2994 RMK A01 T10021007  RH  097%=      5-min Rain = 0
KBO1 221507Z 16011KT M00/M01 A2994 RMK A01 T10021006  RH  097%=      5-min Rain = 0
KBO1 221508Z 17012KT M00/M01 A2993 RMK A01 T10021006  RH  097%=      5-min Rain = 0
KBO1 221509Z 17011KT M00/M01 A2994 RMK A01 T10021006  RH  097%=      5-min Rain = 0
KBO1 221510Z 16011KT M00/M01 A2994 RMK A01 T10021006  RH  097%=      5-min Rain = 0
KBO1 221511Z 16011KT M00/M01 A2994 RMK A01 T10021006  RH  097%=      5-min Rain = 0
KBO1 221512Z 16012KT M00/M01 A2994 RMK A01 T10021006  RH  097%=      5-min Rain = 0
KBO1 221513Z 16012KT M00/M01 A2994 RMK A01 T10021007  RH  097%=      5-min Rain = 0
KBO1 221514Z 16014KT M00/M01 A2994 RMK A01 T10021006  RH  097%=      5-min Rain = 0
KBO1 221515Z 16014KT M00/M01 A2994 RMK A01 T10021006  RH  097%=      5-min Rain = 0
KBO1 221516Z 16012KT M00/M01 A2994 RMK A01 T10021006  RH  097%=      5-min Rain = 0
KBO1 221517Z 17014KT M00/M01 A2994 RMK A01 T10021006  RH  097%=      5-min Rain = 0
KBO1 221518Z 17013KT M00/M01 A2994 RMK A01 T10011006  RH  097%=      5-min Rain = 0
KBO1 221519Z 17013KT M00/M01 A2994 RMK A01 T10011006  RH  097%=      5-min Rain = 0
KBO1 221520Z 17013KT M00/M01 A2994 RMK A01 T10011006  RH  097%=      5-min Rain = 0
KBO1 221521Z 17014KT 00/01 A2994 RMK A01 T00-000-5  RH  096%=      5-min Rain = 0
KBO1 221522Z 17012KT M00/M01 A2994 RMK A01 T10011006  RH  096%=      5-min Rain = 0
KBO1 221523Z 17011KT 00/01 A2994 RMK A01 T00-000-6  RH  096%=      5-min Rain = 0
KBO1 221524Z 17011KT 00/01 A2994 RMK A01 T00-000-6  RH  096%=      5-min Rain = 0
KBO1 221525Z 18011KT 00/01 A2994 RMK A01 T00-000-6  RH  096%=      5-min Rain = 0
KBO1 221526Z 16010KT 00/01 A2994 RMK A01 T00-000-6  RH  096%=      5-min Rain = 0
KBO1 221527Z 16008KT 00/01 A2994 RMK A01 T00-000-6  RH  096%=      5-min Rain = 0
KBO1 221528Z 16008KT 00/M01 A2994 RMK A01 T00011005  RH  096%=      5-min Rain = 0
KBO1 221529Z 16009KT 00/M00 A2994 RMK A01 T00011004  RH  096%=      5-min Rain = 0
KBO1 221530Z 16009KT 00/M00 A2994 RMK A01 T00021004  RH  096%=      5-min Rain = 0
KBO1 221531Z 17010KT 00/M01 A2994 RMK A01 T00011005  RH  096%=      5-min Rain = 0
KBO1 221532Z 16010KT 00/M01 A2994 RMK A01 T00011006  RH  096%=      5-min Rain = 0
KBO1 221533Z 15008KT 00/01 A2994 RMK A01 T000000-6  RH  095%=      5-min Rain = 0
KBO1 221534Z 15009KT 00/M01 A2994 RMK A01 T00011005  RH  096%=      5-min Rain = 0
KBO1 221535Z 15010KT 00/M01 A2994 RMK A01 T00011005  RH  096%=      5-min Rain = 0
KBO1 221536Z 17009KT 00/M01 A2994 RMK A01 T00011005  RH  095%=      5-min Rain = 0
KBO1 221537Z 17011KT 00/M01 A2994 RMK A01 T00011006  RH  095%=      5-min Rain = 0
KBO1 221538Z 17009KT 00/M01 A2994 RMK A01 T00011006  RH  095%=      5-min Rain = 0
KBO1 221539Z 17010KT 00/M01 A2994 RMK A01 T00021005  RH  095%=      5-min Rain = 0
KBO1 221540Z 16010KT 00/M00 A2994 RMK A01 T00031004  RH  095%=      5-min Rain = 0
KBO1 221541Z 15010KT 00/M00 A2994 RMK A01 T00031004  RH  095%=      5-min Rain = 0
KBO1 221542Z 16011KT 00/M01 A2994 RMK A01 T00031005  RH  095%=      5-min Rain = 0
KBO1 221543Z 16009KT 00/M01 A2994 RMK A01 T00041005  RH  094%=      5-min Rain = 0
KBO1 221544Z 16009KT 00/M01 A2994 RMK A01 T00041005  RH  094%=      5-min Rain = 0
KBO1 221545Z 16009KT 00/M01 A2994 RMK A01 T00041006  RH  094%=      5-min Rain = 0
KBO1 221546Z 15011KT 00/M01 A2994 RMK A01 T00041005  RH  094%=      5-min Rain = 0
KBO1 221547Z 14010KT 00/M01 A2994 RMK A01 T00041005  RH  093%=      5-min Rain = 0
KBO1 221548Z 15010KT 00/M01 A2994 RMK A01 T00041006  RH  093%=      5-min Rain = 0
KBO1 221549Z 15010KT 00/M01 A2994 RMK A01 T00041006  RH  093%=      5-min Rain = 0
KBO1 221550Z 15011KT 00/M01 A2994 RMK A01 T00041006  RH  093%=      5-min Rain = 0
KBO1 221551Z 15010KT 00/M01 A2994 RMK A01 T00041006  RH  093%=      5-min Rain = 0
KBO1 221552Z 15011KT 01/M01 A2994 RMK A01 T00051006  RH  093%=      5-min Rain = 0
KBO1 221553Z 15011KT 01/M01 A2994 RMK A01 T00051006  RH  093%=      5-min Rain = 0
KBO1 221554Z 15011KT 01/M01 A2994 RMK A01 T00051005  RH  093%=      5-min Rain = 0
KBO1 221555Z 16011KT 01/M01 A2994 RMK A01 T00061005  RH  093%=      5-min Rain = 0
KBO1 221556Z 16011KT 01/M01 A2994 RMK A01 T00061006  RH  092%=      5-min Rain = 0
KBO1 221557Z 17010KT 01/M01 A2994 RMK A01 T00061007  RH  091%=      5-min Rain = 0
KBO1 221558Z 17011KT 01/M01 A2994 RMK A01 T00061007  RH  091%=      5-min Rain = 0
KBO1 221559Z 17010KT 01/M01 A2994 RMK A01 T00061007  RH  091%=      5-min Rain = 0
KBO1 221600Z 16010KT 01/M01 A2994 RMK A01 T00061006  RH  091%=      5-min Rain = 0
KBO1 221601Z 16011KT 01/M01 A2994 RMK A01 T00071006  RH  091%=      5-min Rain = 0
KBO1 221602Z 16010KT 01/M01 A2993 RMK A01 T00081006  RH  091%=      5-min Rain = 0
KBO1 221603Z 15010KT 01/M01 A2993 RMK A01 T00071007  RH  090%=      5-min Rain = 0
KBO1 221604Z 15010KT 01/M01 A2994 RMK A01 T00071007  RH  091%=      5-min Rain = 0
KBO1 221605Z 15011KT 01/M01 A2993 RMK A01 T00081005  RH  091%=      5-min Rain = 0
KBO1 221606Z 14011KT 01/M00 A2994 RMK A01 T00091004  RH  091%=      5-min Rain = 0
KBO1 221607Z 15011KT 01/M00 A2994 RMK A01 T00101004  RH  090%=      5-min Rain = 0
KBO1 221608Z 15011KT 01/M00 A2994 RMK A01 T00101004  RH  090%=      5-min Rain = 0
KBO1 221609Z 15010KT 01/M00 A2994 RMK A01 T00111004  RH  090%=      5-min Rain = 0
KBO1 221610Z 15010KT 01/M01 A2993 RMK A01 T00111005  RH  089%=      5-min Rain = 0
KBO1 221611Z 14013KT 01/M01 A2993 RMK A01 T00111006  RH  089%=      5-min Rain = 0
KBO1 221612Z 15012KT 01/M01 A2993 RMK A01 T00101007  RH  088%=      5-min Rain = 0
KBO1 221613Z 15012KT 01/M01 A2993 RMK A01 T00091008  RH  089%=      5-min Rain = 0
KBO1 221614Z 14011KT 01/M01 A2993 RMK A01 T00091007  RH  089%=      5-min Rain = 0
KBO1 221615Z 15010KT 01/M01 A2993 RMK A01 T00091007  RH  089%=      5-min Rain = 0
KBO1 221616Z 15011KT 01/M01 A2993 RMK A01 T00091006  RH  090%=      5-min Rain = 0
KBO1 221617Z 15012KT 01/M01 A2993 RMK A01 T00091006  RH  089%=      5-min Rain = 0
KBO1 221618Z 14012KT 01/M01 A2993 RMK A01 T00101006  RH  089%=      5-min Rain = 0
KBO1 221619Z 14011KT 01/M01 A2993 RMK A01 T00101006  RH  089%=      5-min Rain = 0
KBO1 221620Z 16011KT 01/M01 A2993 RMK A01 T00111006  RH  089%=      5-min Rain = 0
KBO1 221621Z 16011KT 01/M01 A2993 RMK A01 T00121006  RH  088%=      5-min Rain = 0
KBO1 221622Z 14012KT 01/M01 A2993 RMK A01 T00121006  RH  088%=      5-min Rain = 0
KBO1 221623Z 14013KT 01/M01 A2993 RMK A01 T00121007  RH  087%=      5-min Rain = 0
KBO1 221624Z 14012KT 01/M01 A2993 RMK A01 T00111008  RH  087%=      5-min Rain = 0
KBO1 221625Z 14011KT 01/M01 A2993 RMK A01 T00111007  RH  088%=      5-min Rain = 0
KBO1 221626Z 15010KT 01/M01 A2993 RMK A01 T00111007  RH  088%=      5-min Rain = 0
KBO1 221627Z 15010KT 01/M01 A2993 RMK A01 T00111008  RH  087%=      5-min Rain = 0
KBO1 221628Z 14010KT 01/M01 A2993 RMK A01 T00111007  RH  088%=      5-min Rain = 0
KBO1 221629Z 15010KT 01/M01 A2993 RMK A01 T00121005  RH  089%=      5-min Rain = 0
KBO1 221630Z 15012KT 01/M00 A2993 RMK A01 T00131004  RH  088%=      5-min Rain = 0
KBO1 221631Z 15009KT 01/M01 A2993 RMK A01 T00131006  RH  087%=      5-min Rain = 0
KBO1 221632Z 16008KT 01/M01 A2993 RMK A01 T00121007  RH  087%=      5-min Rain = 0
KBO1 221633Z 15009KT 01/M01 A2993 RMK A01 T00121005  RH  088%=      5-min Rain = 0
KBO1 221634Z 15010KT 01/M01 A2993 RMK A01 T00131005  RH  088%=      5-min Rain = 0
KBO1 221635Z 15009KT 01/M01 A2993 RMK A01 T00141005  RH  087%=      5-min Rain = 0
KBO1 221636Z 15008KT 02/M01 A2993 RMK A01 T00151005  RH  087%=      5-min Rain = 0
KBO1 221637Z 15009KT 02/M00 A2993 RMK A01 T00181003  RH  086%=      5-min Rain = 0
KBO1 221638Z 15010KT 02/M00 A2993 RMK A01 T00191003  RH  085%=      5-min Rain = 0
KBO1 221639Z 15010KT 02/M01 A2993 RMK A01 T00201005  RH  084%=      5-min Rain = 0
KBO1 221640Z 15011KT 02/M01 A2993 RMK A01 T00191005  RH  084%=      5-min Rain = 0
KBO1 221641Z 14010KT 02/M01 A2992 RMK A01 T00191005  RH  085%=      5-min Rain = 0
KBO1 221642Z 14010KT 02/M00 A2992 RMK A01 T00191004  RH  084%=      5-min Rain = 0
KBO1 221643Z 15009KT 02/M01 A2992 RMK A01 T00191005  RH  084%=      5-min Rain = 0
KBO1 221644Z 15011KT 02/M01 A2992 RMK A01 T00191005  RH  084%=      5-min Rain = 0
KBO1 221645Z 14010KT 02/M01 A2992 RMK A01 T00181006  RH  084%=      5-min Rain = 0
KBO1 221646Z 14012KT 02/M01 A2993 RMK A01 T00181005  RH  085%=      5-min Rain = 0
KBO1 221647Z 16015KT 02/M00 A2992 RMK A01 T00191004  RH  085%=      5-min Rain = 0
KBO1 221648Z 15013KT 02/M01 A2992 RMK A01 T00181005  RH  084%=      5-min Rain = 0
KBO1 221649Z 15012KT 02/M01 A2993 RMK A01 T00171006  RH  084%=      5-min Rain = 0
KBO1 221650Z 16015KT 02/M01 A2993 RMK A01 T00161006  RH  085%=      5-min Rain = 0
KBO1 221651Z 15014KT 02/M01 A2993 RMK A01 T00161006  RH  085%=      5-min Rain = 0
KBO1 221652Z 14012KT 02/M01 A2992 RMK A01 T00161006  RH  085%=      5-min Rain = 0
KBO1 221653Z 15013KT 02/M01 A2992 RMK A01 T00171006  RH  085%=      5-min Rain = 0
KBO1 221654Z 16013KT 02/M01 A2992 RMK A01 T00171006  RH  084%=      5-min Rain = 0
KBO1 221655Z 16015KT 02/M01 A2993 RMK A01 T00171007  RH  084%=      5-min Rain = 0
KBO1 221656Z 15012KT 02/M01 A2992 RMK A01 T00161007  RH  085%=      5-min Rain = 0
KBO1 221657Z 14012KT 02/M01 A2992 RMK A01 T00161007  RH  085%=      5-min Rain = 0
KBO1 221658Z 13011KT 02/M01 A2992 RMK A01 T00171005  RH  086%=      5-min Rain = 0
KBO1 221659Z 13011KT 02/M01 A2992 RMK A01 T00181005  RH  085%=      5-min Rain = 0
KBO1 221700Z 15010KT 02/M00 A2992 RMK A01 T00191004  RH  085%=      5-min Rain = 0
KBO1 221701Z 16010KT 02/M00 A2992 RMK A01 T00231001  RH  084%=      5-min Rain = 0
KBO1 221702Z 16012KT 03/M00 A2992 RMK A01 T00251002  RH  083%=      5-min Rain = 0
KBO1 221703Z 15012KT 03/M00 A2992 RMK A01 T00251003  RH  081%=      5-min Rain = 0
KBO1 221704Z 15014KT 03/M00 A2992 RMK A01 T00261003  RH  081%=      5-min Rain = 0
KBO1 221705Z 16014KT 03/M00 A2992 RMK A01 T00261003  RH  081%=      5-min Rain = 0
KBO1 221706Z 17016KT 03/M00 A2992 RMK A01 T00271004  RH  080%=      5-min Rain = 0
KBO1 221707Z 16014KT 03/M01 A2992 RMK A01 T00251005  RH  081%=      5-min Rain = 0
KBO1 221708Z 15013KT 02/M01 A2992 RMK A01 T00231005  RH  082%=      5-min Rain = 0
KBO1 221709Z 15014KT 02/M00 A2992 RMK A01 T00241004  RH  082%=      5-min Rain = 0
KBO1 221710Z 15014KT 02/M00 A2992 RMK A01 T00241004  RH  082%=      5-min Rain = 0
KBO1 221711Z 16012KT 02/M00 A2992 RMK A01 T00241004  RH  081%=      5-min Rain = 0
KBO1 221712Z 15013KT 03/M00 A2992 RMK A01 T00251004  RH  081%=      5-min Rain = 0
KBO1 221713Z 15013KT 03/M00 A2992 RMK A01 T00251004  RH  081%=      5-min Rain = 0
KBO1 221714Z 15014KT 03/M00 A2992 RMK A01 T00251004  RH  081%=      5-min Rain = 0
KBO1 221715Z 15013KT 03/M00 A2992 RMK A01 T00261004  RH  081%=      5-min Rain = 0
KBO1 221716Z 15013KT 03/M00 A2992 RMK A01 T00271004  RH  080%=      5-min Rain = 0
KBO1 221717Z 15014KT 03/M01 A2992 RMK A01 T00261005  RH  080%=      5-min Rain = 0
KBO1 221718Z 16013KT 03/M00 A2992 RMK A01 T00271004  RH  080%=      5-min Rain = 0
KBO1 221719Z 14012KT 03/M00 A2992 RMK A01 T00281004  RH  079%=      5-min Rain = 0
KBO1 221720Z 14012KT 03/M00 A2992 RMK A01 T00291004  RH  079%=      5-min Rain = 0
KBO1 221721Z 13012KT 03/00 A2992 RMK A01 T00330000  RH  079%=      5-min Rain = 0
KBO1 221722Z 14011KT 03/M00 A2992 RMK A01 T00341003  RH  077%=      5-min Rain = 0
KBO1 221723Z 14011KT 04/M00 A2992 RMK A01 T00351002  RH  077%=      5-min Rain = 0
KBO1 221724Z 15011KT 04/M00 A2992 RMK A01 T00371002  RH  076%=      5-min Rain = 0
KBO1 221725Z 16011KT 04/M00 A2992 RMK A01 T00361004  RH  075%=      5-min Rain = 0
KBO1 221726Z 17012KT 04/M00 A2992 RMK A01 T00351003  RH  076%=      5-min Rain = 0
KBO1 221727Z 15012KT 04/M00 A2992 RMK A01 T00371001  RH  076%=      5-min Rain = 0
KBO1 221728Z 15013KT 04/00 A2992 RMK A01 T00400000  RH  075%=      5-min Rain = 0
KBO1 221729Z 16011KT 04/M00 A2992 RMK A01 T00391003  RH  074%=      5-min Rain = 0
KBO1 221730Z 16009KT 04/M01 A2992 RMK A01 T00371005  RH  074%=      5-min Rain = 0
KBO1 221731Z 17012KT 04/M00 A2992 RMK A01 T00381002  RH  075%=      5-min Rain = 0
KBO1 221732Z 15013KT 04/M00 A2992 RMK A01 T00401002  RH  074%=      5-min Rain = 0
KBO1 221733Z 15013KT 04/M00 A2992 RMK A01 T00411001  RH  074%=      5-min Rain = 0
KBO1 221734Z 14013G18KT 04/M00 A2992 RMK A01 T00421002  RH  073%=      5-min Rain = 0
KBO1 221735Z 15014KT 04/M00 A2992 RMK A01 T00411003  RH  073%=      5-min Rain = 0
KBO1 221736Z 15012KT 04/M00 A2992 RMK A01 T00391004  RH  074%=      5-min Rain = 0
KBO1 221737Z 14012KT 04/M00 A2992 RMK A01 T00371004  RH  074%=      5-min Rain = 0
KBO1 221738Z 16014KT 04/M00 A2992 RMK A01 T00371003  RH  075%=      5-min Rain = 0
KBO1 221739Z 17011KT 04/00 A2992 RMK A01 T00420001  RH  075%=      5-min Rain = 0
KBO1 221740Z 15010KT 05/00 A2992 RMK A01 T00480003  RH  073%=      5-min Rain = 0
KBO1 221741Z 16013KT 05/00 A2992 RMK A01 T00500001  RH  071%=      5-min Rain = 0
KBO1 221742Z 15012KT 05/M00 A2992 RMK A01 T00491001  RH  070%=      5-min Rain = 0
KBO1 221743Z 15011KT 05/00 A2992 RMK A01 T004900-0  RH  070%=      5-min Rain = 0
KBO1 221744Z 16011KT 05/M00 A2991 RMK A01 T00501001  RH  070%=      5-min Rain = 0
KBO1 221745Z 15011KT 05/00 A2991 RMK A01 T00510001  RH  070%=      5-min Rain = 0
KBO1 221746Z 15010KT 05/M00 A2991 RMK A01 T00511001  RH  069%=      5-min Rain = 0
KBO1 221747Z 14012KT 05/00 A2991 RMK A01 T004900-0  RH  071%=      5-min Rain = 0
KBO1 221748Z 13012KT 05/00 A2991 RMK A01 T00500001  RH  070%=      5-min Rain = 0
KBO1 221749Z 15012KT 05/00 A2991 RMK A01 T00510001  RH  070%=      5-min Rain = 0
KBO1 221750Z 16011KT 05/00 A2991 RMK A01 T00530001  RH  069%=      5-min Rain = 0
KBO1 221751Z 14013KT 05/00 A2991 RMK A01 T00510000  RH  070%=      5-min Rain = 0
KBO1 221752Z 14012KT 05/00 A2991 RMK A01 T00510001  RH  070%=      5-min Rain = 0
KBO1 221753Z 14013KT 05/00 A2991 RMK A01 T00510001  RH  070%=      5-min Rain = 0
KBO1 221754Z 14012KT 05/00 A2991 RMK A01 T00510002  RH  070%=      5-min Rain = 0
KBO1 221755Z 15011KT 05/00 A2991 RMK A01 T00530003  RH  070%=      5-min Rain = 0
KBO1 221756Z 14013KT 06/00 A2991 RMK A01 T00550003  RH  069%=      5-min Rain = 0
KBO1 221757Z 15014KT 06/00 A2991 RMK A01 T00560003  RH  069%=      5-min Rain = 0
KBO1 221758Z 14015KT 06/00 A2991 RMK A01 T00570001  RH  067%=      5-min Rain = 0
KBO1 221759Z 15011KT 06/M00 A2991 RMK A01 T00551002  RH  067%=      5-min Rain = 0
KBO1 221800Z 15013KT 06/00 A2991 RMK A01 T00550001  RH  068%=      5-min Rain = 0
KBO1 221801Z 15014KT 06/00 A2991 RMK A01 T00570001  RH  067%=      5-min Rain = 0
KBO1 221802Z 15013KT 06/00 A2991 RMK A01 T00580001  RH  067%=      5-min Rain = 0
KBO1 221803Z 15012KT 06/00 A2991 RMK A01 T00560000  RH  067%=      5-min Rain = 0
KBO1 221804Z 15012KT 06/00 A2991 RMK A01 T00560001  RH  068%=      5-min Rain = 0
KBO1 221805Z 15014KT 06/00 A2991 RMK A01 T00590002  RH  067%=      5-min Rain = 0
KBO1 221806Z 16011KT 06/00 A2991 RMK A01 T005900-0  RH  066%=      5-min Rain = 0
KBO1 221807Z 16013KT 06/00 A299 RMK A01 T00590001  RH  066%=      5-min Rain = 0
KBO1 221808Z 16013KT 06/00 A299 RMK A01 T00600001  RH  066%=      5-min Rain = 0
KBO1 221809Z 16013KT 06/00 A2991 RMK A01 T00600000  RH  066%=      5-min Rain = 0
KBO1 221810Z 15011KT 06/00 A2991 RMK A01 T00610001  RH  066%=      5-min Rain = 0
KBO1 221811Z 15014KT 07/00 A299 RMK A01 T00650004  RH  065%=      5-min Rain = 0
KBO1 221812Z 15013KT 07/00 A299 RMK A01 T00660002  RH  064%=      5-min Rain = 0
KBO1 221813Z 15012KT 06/00 A299 RMK A01 T00640002  RH  064%=      5-min Rain = 0
KBO1 221814Z 15013KT 07/00 A299 RMK A01 T00660004  RH  064%=      5-min Rain = 0
KBO1 221815Z 15011KT 07/00 A299 RMK A01 T00690003  RH  063%=      5-min Rain = 0
KBO1 221816Z 15012KT 07/00 A299 RMK A01 T00690003  RH  062%=      5-min Rain = 0
KBO1 221817Z 14014KT 07/00 A299 RMK A01 T00700002  RH  062%=      5-min Rain = 0
KBO1 221818Z 15013KT 07/00 A299 RMK A01 T00680000  RH  062%=      5-min Rain = 0
KBO1 221819Z 16013KT 07/00 A2989 RMK A01 T00670001  RH  063%=      5-min Rain = 0
KBO1 221820Z 16013KT 07/00 A2989 RMK A01 T00670001  RH  063%=      5-min Rain = 0
KBO1 221821Z 15015KT 07/00 A299 RMK A01 T00680000  RH  062%=      5-min Rain = 0
KBO1 221822Z 15012KT 07/00 A2989 RMK A01 T006800-0  RH  062%=      5-min Rain = 0
KBO1 221823Z 14013KT 07/00 A2989 RMK A01 T00690001  RH  062%=      5-min Rain = 0
KBO1 221824Z 14013G18KT 07/00 A2989 RMK A01 T00700000  RH  061%=      5-min Rain = 0
KBO1 221825Z 15013KT 07/00 A2989 RMK A01 T00720003  RH  062%=      5-min Rain = 0
KBO1 221826Z 14015KT 07/00 A2989 RMK A01 T00740003  RH  061%=      5-min Rain = 0
KBO1 221827Z 14014KT 07/00 A2989 RMK A01 T00720001  RH  061%=      5-min Rain = 0
KBO1 221828Z 15014KT 07/00 A2989 RMK A01 T00690000  RH  062%=      5-min Rain = 0
KBO1 221829Z 15012KT 07/00 A2989 RMK A01 T00690002  RH  062%=      5-min Rain = 0
KBO1 221830Z 14013KT 07/01 A2989 RMK A01 T00740005  RH  062%=      5-min Rain = 0
KBO1 221831Z 14009KT 07/00 A2989 RMK A01 T00730003  RH  061%=      5-min Rain = 0
KBO1 221832Z 15013KT 07/00 A2989 RMK A01 T00740003  RH  061%=      5-min Rain = 0
KBO1 221833Z 15013KT 08/00 A2989 RMK A01 T00750002  RH  060%=      5-min Rain = 0
KBO1 221834Z 14014KT 07/00 A2989 RMK A01 T00740002  RH  060%=      5-min Rain = 0
KBO1 221835Z 14015KT 07/00 A2989 RMK A01 T00730003  RH  061%=      5-min Rain = 0
KBO1 221836Z 14015KT 07/00 A2989 RMK A01 T00740001  RH  060%=      5-min Rain = 0
KBO1 221837Z 15012KT 08/00 A2989 RMK A01 T00750001  RH  060%=      5-min Rain = 0
KBO1 221838Z 14015KT 08/00 A2988 RMK A01 T00770003  RH  059%=      5-min Rain = 0
KBO1 221839Z 15014KT 08/00 A2988 RMK A01 T00760002  RH  059%=      5-min Rain = 0
KBO1 221840Z 15012KT 08/00 A2988 RMK A01 T00770002  RH  059%=      5-min Rain = 0
KBO1 221841Z 15012KT 08/00 A2988 RMK A01 T00770003  RH  059%=      5-min Rain = 0
KBO1 221842Z 16011G16KT 08/00 A2988 RMK A01 T00770004  RH  060%=      5-min Rain = 0
KBO1 221843Z 16014KT 08/00 A2988 RMK A01 T00790001  RH  058%=      5-min Rain = 0
KBO1 221844Z 15012KT 08/M00 A2988 RMK A01 T00801001  RH  057%=      5-min Rain = 0
KBO1 221845Z 16013KT 08/00 A2988 RMK A01 T008000-0  RH  057%=      5-min Rain = 0
KBO1 221846Z 16013KT 08/00 A2988 RMK A01 T00790001  RH  058%=      5-min Rain = 0
KBO1 221847Z 16015KT 08/00 A2988 RMK A01 T00800003  RH  058%=      5-min Rain = 0
KBO1 221848Z 16014KT 08/00 A2988 RMK A01 T00810001  RH  057%=      5-min Rain = 0
KBO1 221849Z 15013KT 08/00 A2988 RMK A01 T00820001  RH  057%=      5-min Rain = 0
KBO1 221850Z 15015KT 08/00 A2988 RMK A01 T00800001  RH  058%=      5-min Rain = 0
KBO1 221851Z 14015KT 08/00 A2988 RMK A01 T008100-0  RH  056%=      5-min Rain = 0
KBO1 221852Z 16012KT 08/M00 A2988 RMK A01 T00811001  RH  056%=      5-min Rain = 0
KBO1 221853Z 16013KT 08/00 A2988 RMK A01 T00820000  RH  056%=      5-min Rain = 0
KBO1 221854Z 14014KT 08/00 A2988 RMK A01 T00830001  RH  056%=      5-min Rain = 0
KBO1 221855Z 15013KT 08/00 A2988 RMK A01 T00840002  RH  056%=      5-min Rain = 0
KBO1 221856Z 15012KT 08/00 A2988 RMK A01 T00840002  RH  056%=      5-min Rain = 0
KBO1 221857Z 16013KT 09/00 A2987 RMK A01 T00860004  RH  056%=      5-min Rain = 0
KBO1 221858Z 16015KT 09/00 A2987 RMK A01 T00880001  RH  054%=      5-min Rain = 0
KBO1 221859Z 16014KT 09/M00 A2987 RMK A01 T00871004  RH  053%=      5-min Rain = 0
KBO1 221900Z 16012KT 09/M00 A2987 RMK A01 T00861003  RH  054%=      5-min Rain = 0
KBO1 221901Z 16013KT 09/M00 A2987 RMK A01 T00861002  RH  054%=      5-min Rain = 0
KBO1 221902Z 16012KT 09/M00 A2987 RMK A01 T00871001  RH  054%=      5-min Rain = 0
KBO1 221903Z 15011KT 09/00 A2987 RMK A01 T00870000  RH  055%=      5-min Rain = 0
KBO1 221904Z 15013KT 09/00 A2987 RMK A01 T00880002  RH  054%=      5-min Rain = 0
KBO1 221905Z 15012KT 09/M00 A2987 RMK A01 T00881002  RH  053%=      5-min Rain = 0
KBO1 221906Z 15012G17KT 09/M00 A2987 RMK A01 T00871001  RH  054%=      5-min Rain = 0
KBO1 221907Z 14012KT 09/00 A2987 RMK A01 T00870000  RH  054%=      5-min Rain = 0
KBO1 221908Z 15014KT 09/00 A2987 RMK A01 T00890000  RH  054%=      5-min Rain = 0
KBO1 221909Z 16013KT 09/M00 A2987 RMK A01 T00891001  RH  053%=      5-min Rain = 0
KBO1 221910Z 16011KT 09/M00 A2986 RMK A01 T00881002  RH  053%=      5-min Rain = 0
KBO1 221911Z 16011KT 09/00 A2986 RMK A01 T00890001  RH  054%=      5-min Rain = 0
KBO1 221912Z 15010KT 09/00 A2987 RMK A01 T00940004  RH  053%=      5-min Rain = 0
KBO1 221913Z 14013KT 10/00 A2986 RMK A01 T00970002  RH  052%=      5-min Rain = 0
KBO1 221914Z 13012KT 10/00 A2986 RMK A01 T00970000  RH  051%=      5-min Rain = 0
KBO1 221915Z 14014KT 09/00 A2986 RMK A01 T00940000  RH  052%=      5-min Rain = 0
KBO1 221916Z 16012KT 09/00 A2986 RMK A01 T00940002  RH  053%=      5-min Rain = 0
KBO1 221917Z 15012KT 10/M00 A2986 RMK A01 T00951001  RH  051%=      5-min Rain = 0
KBO1 221918Z 15011KT 10/00 A2986 RMK A01 T009500-0  RH  051%=      5-min Rain = 0
KBO1 221919Z 16014KT 10/00 A2986 RMK A01 T00950001  RH  052%=      5-min Rain = 0
KBO1 221920Z 15014KT 10/M00 A2986 RMK A01 T00951002  RH  051%=      5-min Rain = 0
KBO1 221921Z 15010KT 10/M00 A2986 RMK A01 T00951001  RH  051%=      5-min Rain = 0
KBO1 221922Z 15012KT 10/00 A2986 RMK A01 T00970001  RH  051%=      5-min Rain = 0
KBO1 221923Z 14012KT 10/00 A2986 RMK A01 T00970002  RH  051%=      5-min Rain = 0
KBO1 221924Z 15014KT 10/M00 A2986 RMK A01 T00991001  RH  050%=      5-min Rain = 0
KBO1 221925Z 16013KT 10/M00 A2986 RMK A01 T00981003  RH  049%=      5-min Rain = 0
KBO1 221926Z 14012KT 10/M00 A2986 RMK A01 T00991001  RH  050%=      5-min Rain = 0
KBO1 221927Z 15010KT 10/00 A2985 RMK A01 T00990001  RH  050%=      5-min Rain = 0
KBO1 221928Z 15010KT 10/00 A2985 RMK A01 T01010002  RH  050%=      5-min Rain = 0
KBO1 221929Z 15014KT 10/00 A2985 RMK A01 T010200-0  RH  049%=      5-min Rain = 0
KBO1 221930Z 15013KT 10/M00 A2985 RMK A01 T00991003  RH  049%=      5-min Rain = 0
KBO1 221931Z 15011KT 10/M00 A2985 RMK A01 T00981004  RH  049%=      5-min Rain = 0
KBO1 221932Z 15012KT 10/M00 A2985 RMK A01 T00991001  RH  050%=      5-min Rain = 0
KBO1 221933Z 14008KT 10/00 A2985 RMK A01 T01010002  RH  050%=      5-min Rain = 0
KBO1 221934Z 16013KT 10/00 A2985 RMK A01 T01030002  RH  050%=      5-min Rain = 0
KBO1 221935Z 16013KT 10/M00 A2984 RMK A01 T01031002  RH  048%=      5-min Rain = 0
KBO1 221936Z 15012KT 10/M00 A2984 RMK A01 T01011003  RH  048%=      5-min Rain = 0
KBO1 221937Z 14011KT 10/M00 A2984 RMK A01 T01011001  RH  049%=      5-min Rain = 0
KBO1 221938Z 14013KT 10/00 A2984 RMK A01 T01020000  RH  049%=      5-min Rain = 0
KBO1 221939Z 14014KT 10/00 A2984 RMK A01 T01030002  RH  049%=      5-min Rain = 0
KBO1 221940Z 14013KT 10/00 A2984 RMK A01 T01010000  RH  050%=      5-min Rain = 0
KBO1 221941Z 13012KT 10/00 A2984 RMK A01 T010000-0  RH  050%=      5-min Rain = 0
KBO1 221942Z 14014KT 10/00 A2984 RMK A01 T01010001  RH  050%=      5-min Rain = 0
KBO1 221943Z 14011KT 10/00 A2984 RMK A01 T01020001  RH  050%=      5-min Rain = 0
KBO1 221944Z 14013KT 10/00 A2984 RMK A01 T01020001  RH  049%=      5-min Rain = 0
KBO1 221945Z 14012KT 10/00 A2984 RMK A01 T01020000  RH  049%=      5-min Rain = 0
KBO1 221946Z 16014KT 10/M00 A2983 RMK A01 T01041001  RH  048%=      5-min Rain = 0
KBO1 221947Z 15012KT 11/M00 A2984 RMK A01 T01051002  RH  048%=      5-min Rain = 0
KBO1 221948Z 16009KT 11/M00 A2983 RMK A01 T01061004  RH  047%=      5-min Rain = 0
KBO1 221949Z 13011KT 11/00 A2983 RMK A01 T010700-0  RH  047%=      5-min Rain = 0
KBO1 221950Z 13013KT 11/M00 A2983 RMK A01 T01081001  RH  047%=      5-min Rain = 0
KBO1 221951Z 14012KT 11/M00 A2983 RMK A01 T01071002  RH  047%=      5-min Rain = 0
KBO1 221952Z 16010KT 11/M00 A2983 RMK A01 T01081002  RH  046%=      5-min Rain = 0
KBO1 221953Z 15012KT 11/M00 A2983 RMK A01 T01111002  RH  045%=      5-min Rain = 0
KBO1 221954Z 15014KT 11/M00 A2983 RMK A01 T01091004  RH  045%=      5-min Rain = 0
KBO1 221955Z 14014KT 11/M00 A2983 RMK A01 T01081003  RH  046%=      5-min Rain = 0
KBO1 221956Z 15013KT 11/M00 A2983 RMK A01 T01071002  RH  047%=      5-min Rain = 0
KBO1 221957Z 13010KT 11/00 A2982 RMK A01 T01090001  RH  047%=      5-min Rain = 0
KBO1 221958Z 12013KT 11/M00 A2982 RMK A01 T01091002  RH  046%=      5-min Rain = 0
KBO1 221959Z 14012KT 11/00 A2982 RMK A01 T01080001  RH  048%=      5-min Rain = 0
KBO1 222000Z 15010KT 11/00 A2982 RMK A01 T01110001  RH  047%=      5-min Rain = 0
KBO1 222001Z 16013KT 11/M00 A2982 RMK A01 T01141003  RH  044%=      5-min Rain = 0
KBO1 222002Z 16012KT 11/M01 A2982 RMK A01 T01121007  RH  044%=      5-min Rain = 0
KBO1 222003Z 15012KT 11/M01 A2982 RMK A01 T01111007  RH  044%=      5-min Rain = 0
KBO1 222004Z 13010KT 11/M01 A2982 RMK A01 T01091005  RH  045%=      5-min Rain = 0
KBO1 222005Z 14011KT 11/M00 A2982 RMK A01 T01081003  RH  046%=      5-min Rain = 0
KBO1 222006Z 13011KT 11/M00 A2982 RMK A01 T01091003  RH  046%=      5-min Rain = 0
KBO1 222007Z 15012KT 11/M00 A2982 RMK A01 T01091003  RH  046%=      5-min Rain = 0
KBO1 222008Z 15011KT 11/M01 A2982 RMK A01 T01091008  RH  044%=      5-min Rain = 0
KBO1 222009Z 15011KT 11/M01 A2982 RMK A01 T01101011  RH  043%=      5-min Rain = 0
KBO1 222010Z 15012KT 11/M01 A2982 RMK A01 T01111010  RH  043%=      5-min Rain = 0
KBO1 222011Z 13011KT 11/M01 A2982 RMK A01 T01121006  RH  044%=      5-min Rain = 0
KBO1 222012Z 14009KT 11/M01 A2981 RMK A01 T01111005  RH  045%=      5-min Rain = 0
KBO1 222013Z 15011G16KT 11/M00 A2981 RMK A01 T01121003  RH  045%=      5-min Rain = 0
KBO1 222014Z 14008KT 12/M01 A2981 RMK A01 T01171005  RH  043%=      5-min Rain = 0
KBO1 222015Z 14014KT 12/M00 A2981 RMK A01 T01201004  RH  042%=      5-min Rain = 0
KBO1 222016Z 14015KT 12/M01 A2981 RMK A01 T01221007  RH  041%=      5-min Rain = 0
KBO1 222017Z 14011KT 12/M01 A2981 RMK A01 T01181012  RH  040%=      5-min Rain = 0
KBO1 222018Z 16011KT 12/M01 A2981 RMK A01 T01171009  RH  042%=      5-min Rain = 0
KBO1 222019Z 15014KT 12/M01 A2981 RMK A01 T01191009  RH  041%=      5-min Rain = 0
KBO1 222020Z 15013KT 12/M01 A2981 RMK A01 T01201009  RH  041%=      5-min Rain = 0
KBO1 222021Z 15011KT 12/M01 A2981 RMK A01 T01191011  RH  041%=      5-min Rain = 0
KBO1 222022Z 15011KT 12/M01 A2981 RMK A01 T01171011  RH  041%=      5-min Rain = 0
KBO1 222023Z 15010KT 12/M01 A2981 RMK A01 T01161009  RH  042%=      5-min Rain = 0
KBO1 222024Z 16008KT 12/M01 A2981 RMK A01 T01171011  RH  041%=      5-min Rain = 0
KBO1 222025Z 14009G15KT 12/M01 A2981 RMK A01 T01181011  RH  041%=      5-min Rain = 0
KBO1 222026Z 14011KT 12/M01 A2981 RMK A01 T01191011  RH  040%=      5-min Rain = 0
KBO1 222027Z 14009KT 12/M01 A298 RMK A01 T01191011  RH  041%=      5-min Rain = 0
KBO1 222028Z 15013KT 12/M01 A298 RMK A01 T01211008  RH  041%=      5-min Rain = 0
KBO1 222029Z 14010KT 12/M01 A298 RMK A01 T01221011  RH  040%=      5-min Rain = 0
KBO1 222030Z 15010KT 12/M01 A298 RMK A01 T01231012  RH  039%=      5-min Rain = 0
KBO1 222031Z 16010KT 13/M01 A298 RMK A01 T01251009  RH  040%=      5-min Rain = 0
KBO1 222032Z 14012KT 13/M01 A298 RMK A01 T01261008  RH  040%=      5-min Rain = 0
KBO1 222033Z 14015KT 13/M01 A298 RMK A01 T01261011  RH  039%=      5-min Rain = 0
KBO1 222034Z 15012KT 13/M02 A298 RMK A01 T01251015  RH  038%=      5-min Rain = 0
KBO1 222035Z 15009KT 12/M02 A298 RMK A01 T01241015  RH  038%=      5-min Rain = 0
KBO1 222036Z 16014KT 13/M02 A298 RMK A01 T01261017  RH  037%=      5-min Rain = 0
KBO1 222037Z 15013KT 13/M02 A298 RMK A01 T01261021  RH  036%=      5-min Rain = 0
KBO1 222038Z 15011KT 12/M02 A298 RMK A01 T01241022  RH  036%=      5-min Rain = 0
KBO1 222039Z 16013KT 13/M02 A298 RMK A01 T01261020  RH  036%=      5-min Rain = 0
KBO1 222040Z 16012KT 13/M02 A298 RMK A01 T01301020  RH  035%=      5-min Rain = 0
KBO1 222041Z 15010KT 13/M03 A298 RMK A01 T01281025  RH  035%=      5-min Rain = 0
KBO1 222042Z 16009KT 13/M02 A298 RMK A01 T01261024  RH  035%=      5-min Rain = 0
KBO1 222043Z 16010KT 13/M02 A298 RMK A01 T01261020  RH  036%=      5-min Rain = 0
KBO1 222044Z 15012G18KT 13/M02 A2979 RMK A01 T01271018  RH  037%=      5-min Rain = 0
KBO1 222045Z 16012KT 13/M02 A2979 RMK A01 T01281019  RH  036%=      5-min Rain = 0
KBO1 222046Z 16013KT 13/M02 A2979 RMK A01 T01281022  RH  035%=      5-min Rain = 0
KBO1 222047Z 15012KT 13/M02 A2979 RMK A01 T01291021  RH  035%=      5-min Rain = 0
KBO1 222048Z 15009KT 13/M02 A2979 RMK A01 T01301022  RH  035%=      5-min Rain = 0
KBO1 222049Z 15007KT 13/M02 A2979 RMK A01 T01291022  RH  035%=      5-min Rain = 0
KBO1 222050Z 15012KT 13/M02 A2979 RMK A01 T01281020  RH  036%=      5-min Rain = 0
KBO1 222051Z 16012KT 13/M02 A2979 RMK A01 T01301020  RH  035%=      5-min Rain = 0
KBO1 222052Z 15014KT 13/M02 A2979 RMK A01 T01301022  RH  035%=      5-min Rain = 0
KBO1 222053Z 14011KT 13/M02 A2979 RMK A01 T01291021  RH  035%=      5-min Rain = 0
KBO1 222054Z 14010KT 13/M02 A2979 RMK A01 T01301020  RH  035%=      5-min Rain = 0
KBO1 222055Z 14009KT 13/M02 A2979 RMK A01 T01301021  RH  035%=      5-min Rain = 0
KBO1 222056Z 14012KT 13/M02 A2979 RMK A01 T01341020  RH  034%=      5-min Rain = 0
KBO1 222057Z 15013KT 14/M02 A2979 RMK A01 T01371020  RH  034%=      5-min Rain = 0
KBO1 222058Z 14011KT 14/M02 A2979 RMK A01 T01361023  RH  033%=      5-min Rain = 0
KBO1 222059Z 15010KT 14/M03 A2979 RMK A01 T01351025  RH  033%=      5-min Rain = 0
KBO1 222100Z 15012KT 14/M03 A2979 RMK A01 T01361028  RH  032%=      5-min Rain = 0
KBO1 222101Z 17012KT 14/M03 A2979 RMK A01 T01361032  RH  031%=      5-min Rain = 0
KBO1 222102Z 16014KT 14/M04 A2979 RMK A01 T01351036  RH  030%=      5-min Rain = 0
KBO1 222103Z 17013KT 14/M04 A2979 RMK A01 T01351037  RH  030%=      5-min Rain = 0
KBO1 222104Z 17009KT 13/M04 A2979 RMK A01 T01331040  RH  030%=      5-min Rain = 0
KBO1 222105Z 16012KT 13/M04 A2979 RMK A01 T01321037  RH  031%=      5-min Rain = 0
KBO1 222106Z 15010KT 13/M04 A2979 RMK A01 T01321035  RH  031%=      5-min Rain = 0
KBO1 222107Z 13014KT 13/M03 A2979 RMK A01 T01311031  RH  032%=      5-min Rain = 0
KBO1 222108Z 15010KT 13/M03 A2979 RMK A01 T01311032  RH  032%=      5-min Rain = 0
KBO1 222109Z 16011KT 13/M03 A2979 RMK A01 T01331028  RH  033%=      5-min Rain = 0
KBO1 222110Z 14015KT 13/M03 A2978 RMK A01 T01331026  RH  033%=      5-min Rain = 0
KBO1 222111Z 13012KT 13/M02 A2979 RMK A01 T01341024  RH  033%=      5-min Rain = 0
KBO1 222112Z 14011KT 13/M03 A2978 RMK A01 T01331025  RH  033%=      5-min Rain = 0
KBO1 222113Z 14009KT 14/M02 A2978 RMK A01 T01351021  RH  034%=      5-min Rain = 0
KBO1 222114Z 13009KT 14/M02 A2978 RMK A01 T01371022  RH  033%=      5-min Rain = 0
KBO1 222115Z 14013KT 14/M03 A2978 RMK A01 T01371027  RH  032%=      5-min Rain = 0
KBO1 222116Z 14013KT 14/M03 A2978 RMK A01 T01361029  RH  032%=      5-min Rain = 0
KBO1 222117Z 14015KT 14/M03 A2978 RMK A01 T01361031  RH  031%=      5-min Rain = 0
KBO1 222118Z 14016G22KT 14/M04 A2978 RMK A01 T01361036  RH  030%=      5-min Rain = 0
KBO1 222119Z 15017KT 14/M05 A2978 RMK A01 T01371050  RH  027%=      5-min Rain = 0
KBO1 222120Z 16017KT 14/M05 A2978 RMK A01 T01381053  RH  026%=      5-min Rain = 0
KBO1 222121Z 17015KT 14/M05 A2978 RMK A01 T01371049  RH  027%=      5-min Rain = 0
KBO1 222122Z 17012KT 14/M05 A2978 RMK A01 T01361052  RH  027%=      5-min Rain = 0
KBO1 222123Z 18010KT 13/M05 A2978 RMK A01 T01331052  RH  027%=      5-min Rain = 0
KBO1 222124Z 17013KT 13/M05 A2978 RMK A01 T01331048  RH  028%=      5-min Rain = 0
KBO1 222125Z 16012KT 13/M04 A2978 RMK A01 T01331036  RH  031%=      5-min Rain = 0
KBO1 222126Z 16012KT 14/M03 A2978 RMK A01 T01371030  RH  031%=      5-min Rain = 0
KBO1 222127Z 17011KT 14/M03 A2978 RMK A01 T01411033  RH  030%=      5-min Rain = 0
KBO1 222128Z 17012KT 14/M04 A2978 RMK A01 T01411039  RH  028%=      5-min Rain = 0
KBO1 222129Z 15010G15KT 14/M04 A2978 RMK A01 T01391039  RH  029%=      5-min Rain = 0
KBO1 222130Z 16015G20KT 14/M04 A2978 RMK A01 T01391039  RH  029%=      5-min Rain = 0
KBO1 222131Z 16014KT 14/M04 A2978 RMK A01 T01411040  RH  028%=      5-min Rain = 0
KBO1 222132Z 16014KT 14/M04 A2978 RMK A01 T01411044  RH  027%=      5-min Rain = 0
KBO1 222133Z 16011KT 14/M05 A2978 RMK A01 T01371047  RH  028%=      5-min Rain = 0
KBO1 222134Z 16012G19KT 14/M05 A2978 RMK A01 T01351046  RH  028%=      5-min Rain = 0
KBO1 222135Z 16014KT 14/M04 A2978 RMK A01 T01371041  RH  029%=      5-min Rain = 0
KBO1 222136Z 16012KT 14/M04 A2978 RMK A01 T01351038  RH  030%=      5-min Rain = 0
KBO1 222137Z 16017KT 14/M04 A2978 RMK A01 T01351037  RH  030%=      5-min Rain = 0
KBO1 222138Z 17016KT 14/M04 A2978 RMK A01 T01361039  RH  029%=      5-min Rain = 0
KBO1 222139Z 17013KT 14/M04 A2978 RMK A01 T01371038  RH  029%=      5-min Rain = 0
KBO1 222140Z 16013KT 14/M04 A2978 RMK A01 T01361037  RH  030%=      5-min Rain = 0
KBO1 222141Z 16014KT 14/M04 A2978 RMK A01 T01361035  RH  030%=      5-min Rain = 0
KBO1 222142Z 14019KT 14/M04 A2977 RMK A01 T01371035  RH  030%=      5-min Rain = 0
KBO1 222143Z 16017KT 14/M04 A2977 RMK A01 T01361036  RH  030%=      5-min Rain = 0
KBO1 222144Z 14013KT 14/M04 A2978 RMK A01 T01351036  RH  030%=      5-min Rain = 0
KBO1 222145Z 15014KT 14/M04 A2978 RMK A01 T01361035  RH  030%=      5-min Rain = 0
KBO1 222146Z 15016KT 14/M04 A2978 RMK A01 T01371037  RH  030%=      5-min Rain = 0
KBO1 222147Z 15015KT 14/M03 A2978 RMK A01 T01371033  RH  030%=      5-min Rain = 0
KBO1 222148Z 16017KT 14/M04 A2977 RMK A01 T01381035  RH  030%=      5-min Rain = 0
KBO1 222149Z 17017KT 14/M05 A2978 RMK A01 T01391049  RH  027%=      5-min Rain = 0
KBO1 222150Z 17013KT 14/M05 A2978 RMK A01 T01391051  RH  026%=      5-min Rain = 0
KBO1 222151Z 18013KT 14/M05 A2978 RMK A01 T01391048  RH  027%=      5-min Rain = 0
KBO1 222152Z 16014KT 14/M05 A2978 RMK A01 T01381047  RH  027%=      5-min Rain = 0
KBO1 222153Z 17013KT 14/M05 A2978 RMK A01 T01371047  RH  028%=      5-min Rain = 0
KBO1 222154Z 16015KT 14/M04 A2978 RMK A01 T01381043  RH  028%=      5-min Rain = 0
KBO1 222155Z 17016KT 14/M05 A2978 RMK A01 T01371045  RH  028%=      5-min Rain = 0
KBO1 222156Z 16018KT 14/M05 A2977 RMK A01 T01371047  RH  028%=      5-min Rain = 0
KBO1 222157Z 18015KT 14/M05 A2977 RMK A01 T01391047  RH  027%=      5-min Rain = 0
KBO1 222158Z 18017KT 14/M05 A2977 RMK A01 T01401046  RH  027%=      5-min Rain = 0
KBO1 222159Z 18016KT 14/M05 A2977 RMK A01 T01381051  RH  026%=      5-min Rain = 0
KBO1 222200Z 17013KT 14/M06 A2977 RMK A01 T01361055  RH  026%=      5-min Rain = 0
KBO1 222201Z 18018KT 14/M05 A2977 RMK A01 T01371052  RH  026%=      5-min Rain = 0
KBO1 222202Z 17019KT 14/M05 A2977 RMK A01 T01401051  RH  026%=      5-min Rain = 0
KBO1 222203Z 18016G21KT 14/M05 A2977 RMK A01 T01391049  RH  027%=      5-min Rain = 0
KBO1 222204Z 17016KT 14/M05 A2977 RMK A01 T01381045  RH  028%=      5-min Rain = 0
KBO1 222205Z 16013KT 14/M04 A2977 RMK A01 T01371043  RH  028%=      5-min Rain = 0
KBO1 222206Z 16017G23KT 14/M04 A2977 RMK A01 T01381042  RH  028%=      5-min Rain = 0
KBO1 222207Z 17019KT 14/M04 A2977 RMK A01 T01381044  RH  028%=      5-min Rain = 0
KBO1 222208Z 18018KT 14/M04 A2977 RMK A01 T01381042  RH  028%=      5-min Rain = 0
KBO1 222209Z 19017KT 14/M04 A2977 RMK A01 T01361042  RH  029%=      5-min Rain = 0
KBO1 222210Z 18016KT 14/M05 A2977 RMK A01 T01351045  RH  028%=      5-min Rain = 0
KBO1 222211Z 16015G20KT 14/M04 A2978 RMK A01 T01351044  RH  028%=      5-min Rain = 0
KBO1 222212Z 16018G23KT 14/M05 A2977 RMK A01 T01371045  RH  028%=      5-min Rain = 0
KBO1 222213Z 16016KT 14/M05 A2977 RMK A01 T01371045  RH  028%=      5-min Rain = 0
KBO1 222214Z 17016KT 14/M04 A2978 RMK A01 T01381044  RH  028%=      5-min Rain = 0
KBO1 222215Z 18013KT 14/M04 A2978 RMK A01 T01381043  RH  028%=      5-min Rain = 0
KBO1 222216Z 19014G21KT 14/M05 A2978 RMK A01 T01401046  RH  027%=      5-min Rain = 0
KBO1 222217Z 18021KT 14/M05 A2978 RMK A01 T01401046  RH  027%=      5-min Rain = 0
KBO1 222218Z 18020KT 14/M05 A2978 RMK A01 T01381046  RH  028%=      5-min Rain = 0
KBO1 222219Z 18017KT 14/M04 A2978 RMK A01 T01371044  RH  028%=      5-min Rain = 0
KBO1 222220Z 19016KT 14/M04 A2978 RMK A01 T01361043  RH  028%=      5-min Rain = 0
KBO1 222221Z 18012KT 14/M04 A2978 RMK A01 T01351043  RH  029%=      5-min Rain = 0
KBO1 222222Z 17013KT 14/M04 A2978 RMK A01 T01361041  RH  029%=      5-min Rain = 0
KBO1 222223Z 16018KT 14/M04 A2978 RMK A01 T01371039  RH  029%=      5-min Rain = 0
KBO1 222224Z 16013KT 14/M04 A2978 RMK A01 T01361039  RH  029%=      5-min Rain = 0
KBO1 222225Z 16012KT 14/M04 A2978 RMK A01 T01351037  RH  030%=      5-min Rain = 0
KBO1 222226Z 18016KT 14/M04 A2978 RMK A01 T01381035  RH  030%=      5-min Rain = 0
KBO1 222227Z 17017KT 14/M03 A2978 RMK A01 T01391034  RH  030%=      5-min Rain = 0
KBO1 222228Z 17015KT 14/M04 A2978 RMK A01 T01371036  RH  030%=      5-min Rain = 0
KBO1 222229Z 17013KT 14/M04 A2978 RMK A01 T01351036  RH  030%=      5-min Rain = 0
KBO1 222230Z 17016KT 13/M04 A2977 RMK A01 T01341037  RH  030%=      5-min Rain = 0
KBO1 222231Z 16016KT 13/M04 A2977 RMK A01 T01341035  RH  031%=      5-min Rain = 0
KBO1 222232Z 16017KT 14/M03 A2977 RMK A01 T01351033  RH  031%=      5-min Rain = 0
KBO1 222233Z 16014KT 14/M03 A2977 RMK A01 T01351034  RH  031%=      5-min Rain = 0
KBO1 222234Z 17017KT 14/M03 A2977 RMK A01 T01351033  RH  031%=      5-min Rain = 0
KBO1 222235Z 17017KT 14/M03 A2977 RMK A01 T01351032  RH  031%=      5-min Rain = 0
KBO1 222236Z 16015KT 13/M03 A2977 RMK A01 T01331032  RH  032%=      5-min Rain = 0
KBO1 222237Z 17018G23KT 13/M03 A2977 RMK A01 T01341030  RH  032%=      5-min Rain = 0
KBO1 222238Z 18014KT 13/M03 A2977 RMK A01 T01341030  RH  032%=      5-min Rain = 0
KBO1 222239Z 16015G20KT 14/M03 A2977 RMK A01 T01351029  RH  032%=      5-min Rain = 0
KBO1 222240Z 16015KT 14/M03 A2977 RMK A01 T01361029  RH  032%=      5-min Rain = 0
KBO1 222241Z 17013KT 14/M03 A2977 RMK A01 T01361028  RH  032%=      5-min Rain = 0
KBO1 222242Z 17016KT 14/M03 A2977 RMK A01 T01361029  RH  032%=      5-min Rain = 0
KBO1 222243Z 16013KT 14/M03 A2977 RMK A01 T01351027  RH  032%=      5-min Rain = 0
KBO1 222244Z 15015KT 14/M03 A2977 RMK A01 T01361027  RH  032%=      5-min Rain = 0
KBO1 222245Z 15017KT 14/M03 A2977 RMK A01 T01361027  RH  032%=      5-min Rain = 0
KBO1 222246Z 14017KT 14/M03 A2977 RMK A01 T01361027  RH  032%=      5-min Rain = 0
KBO1 222247Z 15016KT 14/M03 A2977 RMK A01 T01351027  RH  033%=      5-min Rain = 0
KBO1 222248Z 15014KT 13/M03 A2977 RMK A01 T01331027  RH  033%=      5-min Rain = 0
KBO1 222249Z 15013KT 13/M03 A2976 RMK A01 T01321026  RH  033%=      5-min Rain = 0
KBO1 222250Z 15015KT 13/M03 A2976 RMK A01 T01331026  RH  033%=      5-min Rain = 0
KBO1 222251Z 16015G20KT 13/M03 A2976 RMK A01 T01331026  RH  033%=      5-min Rain = 0
KBO1 222252Z 15017KT 13/M03 A2976 RMK A01 T01331028  RH  033%=      5-min Rain = 0
KBO1 222253Z 16014KT 13/M03 A2976 RMK A01 T01341028  RH  032%=      5-min Rain = 0
KBO1 222254Z 15013KT 14/M03 A2976 RMK A01 T01351028  RH  032%=      5-min Rain = 0
KBO1 222255Z 15015KT 14/M03 A2976 RMK A01 T01371028  RH  032%=      5-min Rain = 0
KBO1 222256Z 16012KT 14/M03 A2976 RMK A01 T01391030  RH  031%=      5-min Rain = 0
KBO1 222257Z 18010KT 14/M03 A2976 RMK A01 T01401030  RH  031%=      5-min Rain = 0
KBO1 222258Z 18014KT 14/M03 A2976 RMK A01 T01411032  RH  030%=      5-min Rain = 0
KBO1 222259Z 16010KT 14/M03 A2976 RMK A01 T01401031  RH  030%=      5-min Rain = 0
KBO1 222300Z 16015KT 14/M03 A2976 RMK A01 T01391030  RH  031%=      5-min Rain = 0
KBO1 222301Z 16016KT 14/M03 A2976 RMK A01 T01371030  RH  031%=      5-min Rain = 0
KBO1 222302Z 16017KT 14/M03 A2976 RMK A01 T01351029  RH  032%=      5-min Rain = 0
KBO1 222303Z 15017KT 13/M03 A2976 RMK A01 T01331029  RH  032%=      5-min Rain = 0
KBO1 222304Z 15017KT 13/M03 A2976 RMK A01 T01331028  RH  032%=      5-min Rain = 0
KBO1 222305Z 16019KT 13/M03 A2976 RMK A01 T01331028  RH  033%=      5-min Rain = 0
KBO1 222306Z 15017KT 13/M03 A2976 RMK A01 T01321028  RH  033%=      5-min Rain = 0
KBO1 222307Z 16016KT 13/M03 A2976 RMK A01 T01321027  RH  033%=      5-min Rain = 0
KBO1 222308Z 16015KT 13/M03 A2976 RMK A01 T01321027  RH  033%=      5-min Rain = 0
KBO1 222309Z 16015KT 13/M03 A2976 RMK A01 T01311027  RH  033%=      5-min Rain = 0
KBO1 222310Z 15015KT 13/M03 A2976 RMK A01 T01311026  RH  033%=      5-min Rain = 0
KBO1 222311Z 15016KT 13/M03 A2976 RMK A01 T01321027  RH  033%=      5-min Rain = 0
KBO1 222312Z 16017KT 13/M03 A2976 RMK A01 T01331028  RH  033%=      5-min Rain = 0
KBO1 222313Z 15016KT 13/M03 A2976 RMK A01 T01331030  RH  032%=      5-min Rain = 0
KBO1 222314Z 14015KT 13/M03 A2976 RMK A01 T01331030  RH  032%=      5-min Rain = 0
KBO1 222315Z 14015KT 13/M03 A2976 RMK A01 T01331031  RH  032%=      5-min Rain = 0
KBO1 222316Z 16014G20KT 13/M03 A2975 RMK A01 T01331031  RH  032%=      5-min Rain = 0
KBO1 222317Z 16017KT 13/M03 A2975 RMK A01 T01341033  RH  031%=      5-min Rain = 0
KBO1 222318Z 16017KT 13/M03 A2975 RMK A01 T01331033  RH  031%=      5-min Rain = 0
KBO1 222319Z 17016KT 13/M03 A2975 RMK A01 T01341032  RH  031%=      5-min Rain = 0
KBO1 222320Z 17018KT 13/M03 A2975 RMK A01 T01341033  RH  031%=      5-min Rain = 0
KBO1 222321Z 17020KT 13/M04 A2975 RMK A01 T01341035  RH  031%=      5-min Rain = 0
KBO1 222322Z 17017KT 13/M04 A2975 RMK A01 T01341037  RH  030%=      5-min Rain = 0
KBO1 222323Z 16016KT 13/M04 A2975 RMK A01 T01341036  RH  031%=      5-min Rain = 0
KBO1 222324Z 15016G21KT 13/M03 A2975 RMK A01 T01341033  RH  031%=      5-min Rain = 0
KBO1 222325Z 16014KT 13/M03 A2975 RMK A01 T01341032  RH  031%=      5-min Rain = 0
KBO1 222326Z 16018KT 14/M03 A2975 RMK A01 T01351032  RH  031%=      5-min Rain = 0
KBO1 222327Z 16017KT 14/M03 A2975 RMK A01 T01351032  RH  031%=      5-min Rain = 0
KBO1 222328Z 16017KT 13/M03 A2975 RMK A01 T01341032  RH  032%=      5-min Rain = 0
KBO1 222329Z 16014KT 13/M03 A2975 RMK A01 T01331032  RH  032%=      5-min Rain = 0
KBO1 222330Z 15015KT 13/M03 A2975 RMK A01 T01331032  RH  032%=      5-min Rain = 0
KBO1 222331Z 15018KT 13/M03 A2975 RMK A01 T01331034  RH  031%=      5-min Rain = 0
KBO1 222332Z 16016KT 13/M04 A2975 RMK A01 T01341035  RH  031%=      5-min Rain = 0
KBO1 222333Z 16017KT 13/M04 A2975 RMK A01 T01331036  RH  031%=      5-min Rain = 0
KBO1 222334Z 16015KT 13/M04 A2975 RMK A01 T01331038  RH  030%=      5-min Rain = 0
KBO1 222335Z 16014KT 13/M04 A2975 RMK A01 T01341037  RH  030%=      5-min Rain = 0
KBO1 222336Z 15013KT 13/M04 A2975 RMK A01 T01331037  RH  030%=      5-min Rain = 0
KBO1 222337Z 15015KT 13/M04 A2975 RMK A01 T01341036  RH  030%=      5-min Rain = 0
KBO1 222338Z 15016KT 13/M04 A2975 RMK A01 T01341037  RH  030%=      5-min Rain = 0
KBO1 222339Z 16015KT 13/M04 A2975 RMK A01 T01341039  RH  030%=      5-min Rain = 0
KBO1 222340Z 16013KT 13/M04 A2975 RMK A01 T01341039  RH  030%=      5-min Rain = 0
KBO1 222341Z 16015KT 13/M04 A2975 RMK A01 T01331039  RH  030%=      5-min Rain = 0
KBO1 222342Z 16012KT 13/M04 A2975 RMK A01 T01331039  RH  030%=      5-min Rain = 0
KBO1 222343Z 16011KT 13/M04 A2975 RMK A01 T01331038  RH  030%=      5-min Rain = 0
KBO1 222344Z 16013KT 13/M04 A2975 RMK A01 T01331038  RH  030%=      5-min Rain = 0
KBO1 222345Z 16011KT 13/M04 A2975 RMK A01 T01331038  RH  030%=      5-min Rain = 0
KBO1 222346Z 15014KT 13/M04 A2974 RMK A01 T01321038  RH  030%=      5-min Rain = 0
KBO1 222347Z 16015KT 13/M04 A2974 RMK A01 T01321038  RH  031%=      5-min Rain = 0
KBO1 222348Z 16014KT 13/M04 A2974 RMK A01 T01321037  RH  031%=      5-min Rain = 0
KBO1 222349Z 15014KT 13/M04 A2974 RMK A01 T01311036  RH  031%=      5-min Rain = 0
KBO1 222350Z 15015KT 13/M04 A2974 RMK A01 T01311035  RH  031%=      5-min Rain = 0
KBO1 222351Z 14017KT 13/M04 A2974 RMK A01 T01301035  RH  032%=      5-min Rain = 0
KBO1 222352Z 15017KT 13/M03 A2974 RMK A01 T01301034  RH  032%=      5-min Rain = 0
KBO1 222353Z 15016KT 13/M03 A2974 RMK A01 T01291034  RH  032%=      5-min Rain = 0
KBO1 222354Z 15017KT 13/M03 A2974 RMK A01 T01291033  RH  032%=      5-min Rain = 0
KBO1 222355Z 14017KT 13/M03 A2974 RMK A01 T01281033  RH  032%=      5-min Rain = 0
KBO1 222356Z 15017KT 13/M03 A2974 RMK A01 T01281032  RH  033%=      5-min Rain = 0
KBO1 222357Z 15015KT 13/M03 A2974 RMK A01 T01271032  RH  033%=      5-min Rain = 0
KBO1 222358Z 15013KT 13/M03 A2974 RMK A01 T01261031  RH  033%=      5-min Rain = 0
KBO1 222359Z 14013KT 13/M03 A2974 RMK A01 T01261030  RH  034%=      5-min Rain = 0
KBO1 230000Z 15012KT 13/M03 A2974 RMK A01 T01251030  RH  034%=      5-min Rain = 0
KBO1 230001Z 14013KT 13/M03 A2974 RMK A01 T01251030  RH  034%=      5-min Rain = 0
KBO1 230002Z 15012KT 12/M03 A2974 RMK A01 T01241030  RH  034%=      5-min Rain = 0
KBO1 230003Z 15014KT 12/M03 A2974 RMK A01 T01241030  RH  034%=      5-min Rain = 0
KBO1 230004Z 15012KT 12/M03 A2974 RMK A01 T01241030  RH  034%=      5-min Rain = 0
KBO1 230005Z 14011KT 12/M03 A2974 RMK A01 T01231030  RH  034%=      5-min Rain = 0
KBO1 230006Z 14012KT 12/M03 A2974 RMK A01 T01231030  RH  034%=      5-min Rain = 0
KBO1 230007Z 14014KT 12/M03 A2974 RMK A01 T01221030  RH  034%=      5-min Rain = 0
KBO1 230008Z 15013KT 12/M03 A2974 RMK A01 T01221030  RH  034%=      5-min Rain = 0
KBO1 230009Z 15013KT 12/M03 A2974 RMK A01 T01221030  RH  034%=      5-min Rain = 0
KBO1 230010Z 14012KT 12/M03 A2974 RMK A01 T01221030  RH  034%=      5-min Rain = 0
KBO1 230011Z 14012KT 12/M03 A2974 RMK A01 T01211031  RH  035%=      5-min Rain = 0
KBO1 230012Z 14013KT 12/M03 A2974 RMK A01 T01201031  RH  035%=      5-min Rain = 0
KBO1 230013Z 14015KT 12/M03 A2974 RMK A01 T01201031  RH  035%=      5-min Rain = 0
KBO1 230014Z 14014KT 12/M03 A2974 RMK A01 T01201031  RH  035%=      5-min Rain = 0
KBO1 230015Z 15014KT 12/M03 A2974 RMK A01 T01201031  RH  035%=      5-min Rain = 0
KBO1 230016Z 14014KT 12/M03 A2974 RMK A01 T01201030  RH  035%=      5-min Rain = 0
KBO1 230017Z 14013KT 12/M03 A2974 RMK A01 T01191030  RH  035%=      5-min Rain = 0
KBO1 230018Z 14015KT 12/M03 A2974 RMK A01 T01181030  RH  035%=      5-min Rain = 0
KBO1 230019Z 14013KT 12/M03 A2974 RMK A01 T01171029  RH  036%=      5-min Rain = 0
KBO1 230020Z 14013KT 12/M03 A2974 RMK A01 T01161028  RH  036%=      5-min Rain = 0
KBO1 230021Z 14015KT 12/M03 A2974 RMK A01 T01161026  RH  037%=      5-min Rain = 0
KBO1 230022Z 14013KT 12/M03 A2974 RMK A01 T01151025  RH  037%=      5-min Rain = 0
KBO1 230023Z 14014KT 12/M03 A2974 RMK A01 T01151025  RH  038%=      5-min Rain = 0
KBO1 230024Z 14011KT 11/M03 A2974 RMK A01 T01131025  RH  038%=      5-min Rain = 0
KBO1 230025Z 14011KT 11/M03 A2974 RMK A01 T01121025  RH  038%=      5-min Rain = 0
KBO1 230026Z 14012KT 11/M02 A2974 RMK A01 T01111024  RH  039%=      5-min Rain = 0
KBO1 230027Z 14012KT 11/M02 A2974 RMK A01 T01101024  RH  039%=      5-min Rain = 0
KBO1 230028Z 14013KT 11/M02 A2974 RMK A01 T01091023  RH  039%=      5-min Rain = 0
KBO1 230029Z 14011KT 11/M02 A2974 RMK A01 T01091023  RH  040%=      5-min Rain = 0
KBO1 230030Z 14012KT 11/M02 A2974 RMK A01 T01071023  RH  040%=      5-min Rain = 0
KBO1 230031Z 14012KT 11/M02 A2974 RMK A01 T01061022  RH  041%=      5-min Rain = 0
KBO1 230032Z 14014KT 11/M02 A2974 RMK A01 T01061022  RH  041%=      5-min Rain = 0
KBO1 230033Z 14013KT 11/M02 A2974 RMK A01 T01051021  RH  041%=      5-min Rain = 0
KBO1 230034Z 14011KT 11/M02 A2974 RMK A01 T01051021  RH  041%=      5-min Rain = 0
KBO1 230035Z 14011KT 10/M02 A2974 RMK A01 T01041022  RH  041%=      5-min Rain = 0
KBO1 230036Z 14014KT 10/M02 A2974 RMK A01 T01041021  RH  042%=      5-min Rain = 0
KBO1 230037Z 13014KT 10/M02 A2974 RMK A01 T01031021  RH  042%=      5-min Rain = 0
KBO1 230038Z 13014KT 10/M02 A2974 RMK A01 T01041020  RH  042%=      5-min Rain = 0
KBO1 230039Z 13014KT 10/M02 A2974 RMK A01 T01041020  RH  042%=      5-min Rain = 0
KBO1 230040Z 13013KT 11/M02 A2974 RMK A01 T01051020  RH  042%=      5-min Rain = 0
KBO1 230041Z 13013KT 10/M02 A2974 RMK A01 T01041020  RH  042%=      5-min Rain = 0
KBO1 230042Z 13014KT 10/M02 A2974 RMK A01 T01041020  RH  042%=      5-min Rain = 0
KBO1 230043Z 13012KT 10/M02 A2974 RMK A01 T01031020  RH  042%=      5-min Rain = 0
KBO1 230044Z 13012KT 10/M02 A2974 RMK A01 T01021021  RH  042%=      5-min Rain = 0
KBO1 230045Z 13013KT 10/M02 A2974 RMK A01 T01011020  RH  043%=      5-min Rain = 0
KBO1 230046Z 13013KT 10/M02 A2973 RMK A01 T01011019  RH  043%=      5-min Rain = 0
KBO1 230047Z 13015KT 10/M02 A2974 RMK A01 T01011019  RH  043%=      5-min Rain = 0
KBO1 230048Z 13016KT 10/M02 A2974 RMK A01 T01011018  RH  043%=      5-min Rain = 0
KBO1 230049Z 13013KT 10/M02 A2974 RMK A01 T01011018  RH  043%=      5-min Rain = 0
KBO1 230050Z 13012KT 10/M02 A2974 RMK A01 T01011018  RH  043%=      5-min Rain = 0
KBO1 230051Z 13013KT 10/M02 A2974 RMK A01 T00991018  RH  044%=      5-min Rain = 0
KBO1 230052Z 13012KT 10/M02 A2973 RMK A01 T00991018  RH  044%=      5-min Rain = 0
KBO1 230053Z 13014KT 10/M02 A2973 RMK A01 T00991017  RH  044%=      5-min Rain = 0
KBO1 230054Z 13013KT 10/M02 A2973 RMK A01 T00981017  RH  044%=      5-min Rain = 0
KBO1 230055Z 13014KT 10/M02 A2973 RMK A01 T00981017  RH  044%=      5-min Rain = 0
KBO1 230056Z 13012KT 10/M02 A2973 RMK A01 T00971018  RH  044%=      5-min Rain = 0
KBO1 230057Z 13012KT 10/M02 A2973 RMK A01 T00961018  RH  045%=      5-min Rain = 0
KBO1 230058Z 13013KT 10/M02 A2973 RMK A01 T00951018  RH  045%=      5-min Rain = 0
KBO1 230059Z 13013KT 09/M02 A2973 RMK A01 T00941018  RH  045%=      5-min Rain = 0
KBO1 230100Z 13012KT 09/M02 A2973 RMK A01 T00931018  RH  046%=      5-min Rain = 0
KBO1 230101Z 13011KT 09/M02 A2973 RMK A01 T00921018  RH  046%=      5-min Rain = 0
KBO1 230102Z 13012KT 09/M02 A2973 RMK A01 T00921018  RH  046%=      5-min Rain = 0
KBO1 230103Z 13013KT 09/M02 A2973 RMK A01 T00911018  RH  046%=      5-min Rain = 0
KBO1 230104Z 13011KT 09/M02 A2973 RMK A01 T00911017  RH  047%=      5-min Rain = 0
KBO1 230105Z 13011KT 09/M02 A2973 RMK A01 T00911017  RH  047%=      5-min Rain = 0
KBO1 230106Z 13011KT 09/M02 A2973 RMK A01 T00901017  RH  047%=      5-min Rain = 0
KBO1 230107Z 13011KT 09/M02 A2973 RMK A01 T00891017  RH  047%=      5-min Rain = 0
KBO1 230108Z 13011KT 09/M02 A2973 RMK A01 T00891018  RH  047%=      5-min Rain = 0
KBO1 230109Z 13012KT 09/M02 A2973 RMK A01 T00881018  RH  047%=      5-min Rain = 0
KBO1 230110Z 13012KT 09/M02 A2973 RMK A01 T00871018  RH  048%=      5-min Rain = 0
KBO1 230111Z 13012KT 09/M02 A2973 RMK A01 T00871018  RH  048%=      5-min Rain = 0
KBO1 230112Z 12010KT 09/M02 A2973 RMK A01 T00861018  RH  048%=      5-min Rain = 0
KBO1 230113Z 12010KT 08/M02 A2973 RMK A01 T00841019  RH  048%=      5-min Rain = 0
KBO1 230114Z 11011KT 08/M02 A2973 RMK A01 T00821020  RH  049%=      5-min Rain = 0
KBO1 230115Z 11011KT 08/M02 A2973 RMK A01 T00811020  RH  049%=      5-min Rain = 0
KBO1 230116Z 11011KT 08/M02 A2973 RMK A01 T00791021  RH  049%=      5-min Rain = 0
KBO1 230117Z 11011KT 08/M02 A2973 RMK A01 T00771021  RH  050%=      5-min Rain = 0
KBO1 230118Z 11014KT 08/M02 A2973 RMK A01 T00761019  RH  051%=      5-min Rain = 0
KBO1 230119Z 12015KT 08/M02 A2973 RMK A01 T00761016  RH  052%=      5-min Rain = 0
KBO1 230120Z 12016KT 08/M01 A2973 RMK A01 T00781012  RH  053%=      5-min Rain = 0
KBO1 230121Z 12016KT 08/M01 A2973 RMK A01 T00791009  RH  054%=      5-min Rain = 0
KBO1 230122Z 12015KT 08/M01 A2973 RMK A01 T00801008  RH  054%=      5-min Rain = 0
KBO1 230123Z 11015KT 08/M01 A2973 RMK A01 T00801007  RH  054%=      5-min Rain = 0
KBO1 230124Z 11015KT 08/M01 A2973 RMK A01 T00791007  RH  054%=      5-min Rain = 0
KBO1 230125Z 11015KT 08/M01 A2973 RMK A01 T00781006  RH  055%=      5-min Rain = 0
KBO1 230126Z 12015KT 08/M01 A2973 RMK A01 T00781005  RH  056%=      5-min Rain = 0
KBO1 230127Z 11016KT 08/M00 A2973 RMK A01 T00781004  RH  056%=      5-min Rain = 0
KBO1 230128Z 12019KT 08/M00 A2973 RMK A01 T00781002  RH  057%=      5-min Rain = 0
KBO1 230129Z 12017KT 08/M00 A2973 RMK A01 T00791001  RH  057%=      5-min Rain = 0
KBO1 230130Z 12016KT 08/00 A2973 RMK A01 T00790000  RH  057%=      5-min Rain = 0
KBO1 230131Z 12016KT 08/00 A2973 RMK A01 T00800002  RH  058%=      5-min Rain = 0
KBO1 230132Z 12016KT 08/00 A2973 RMK A01 T00800003  RH  058%=      5-min Rain = 0
KBO1 230133Z 12014KT 08/00 A2973 RMK A01 T00790003  RH  058%=      5-min Rain = 0
KBO1 230134Z 12013KT 08/00 A2973 RMK A01 T00780002  RH  059%=      5-min Rain = 0
KBO1 230135Z 12014KT 08/00 A2973 RMK A01 T00770002  RH  059%=      5-min Rain = 0
KBO1 230136Z 12012KT 08/00 A2973 RMK A01 T00770002  RH  059%=      5-min Rain = 0
KBO1 230137Z 12014KT 08/00 A2973 RMK A01 T00760002  RH  059%=      5-min Rain = 0
KBO1 230138Z 12013KT 08/00 A2974 RMK A01 T00750003  RH  060%=      5-min Rain = 0
KBO1 230139Z 12015KT 08/00 A2973 RMK A01 T00750003  RH  060%=      5-min Rain = 0
KBO1 230140Z 12013KT 08/00 A2973 RMK A01 T00750004  RH  061%=      5-min Rain = 0
KBO1 230141Z 12015KT 08/00 A2973 RMK A01 T00750004  RH  061%=      5-min Rain = 0
KBO1 230142Z 12015KT 08/01 A2973 RMK A01 T00750005  RH  061%=      5-min Rain = 0
KBO1 230143Z 12013KT 08/01 A2973 RMK A01 T00750005  RH  061%=      5-min Rain = 0
KBO1 230144Z 12013KT 07/01 A2973 RMK A01 T00740005  RH  061%=      5-min Rain = 0
KBO1 230145Z 12013KT 07/01 A2973 RMK A01 T00740006  RH  062%=      5-min Rain = 0
KBO1 230146Z 12013KT 07/01 A2974 RMK A01 T00740006  RH  062%=      5-min Rain = 0
KBO1 230147Z 12013KT 07/01 A2973 RMK A01 T00730006  RH  062%=      5-min Rain = 0
KBO1 230148Z 12015KT 07/01 A2974 RMK A01 T00730006  RH  062%=      5-min Rain = 0
KBO1 230149Z 12014KT 07/01 A2974 RMK A01 T00730006  RH  063%=      5-min Rain = 0
KBO1 230150Z 12013KT 07/01 A2974 RMK A01 T00720006  RH  063%=      5-min Rain = 0
KBO1 230151Z 12013KT 07/01 A2974 RMK A01 T00720005  RH  063%=      5-min Rain = 0
KBO1 230152Z 12013KT 07/01 A2974 RMK A01 T00710005  RH  063%=      5-min Rain = 0
KBO1 230153Z 12013KT 07/01 A2974 RMK A01 T00700005  RH  063%=      5-min Rain = 0
KBO1 230154Z 12013KT 07/01 A2974 RMK A01 T00700005  RH  063%=      5-min Rain = 0
KBO1 230155Z 12013KT 07/01 A2974 RMK A01 T00690005  RH  064%=      5-min Rain = 0
KBO1 230156Z 12012KT 07/01 A2974 RMK A01 T00690006  RH  064%=      5-min Rain = 0
KBO1 230157Z 12012KT 07/01 A2973 RMK A01 T00680005  RH  064%=      5-min Rain = 0
KBO1 230158Z 12012KT 07/01 A2974 RMK A01 T00680005  RH  064%=      5-min Rain = 0
KBO1 230159Z 12012KT 07/01 A2974 RMK A01 T00670005  RH  064%=      5-min Rain = 0
KBO1 230200Z 12013KT 07/01 A2974 RMK A01 T00670005  RH  065%=      5-min Rain = 0
KBO1 230201Z 12014KT 07/01 A2974 RMK A01 T00660005  RH  065%=      5-min Rain = 0
KBO1 230202Z 12013KT 07/01 A2974 RMK A01 T00660006  RH  066%=      5-min Rain = 0
KBO1 230203Z 12013KT 07/01 A2974 RMK A01 T00660007  RH  066%=      5-min Rain = 0
KBO1 230204Z 12012KT 07/01 A2973 RMK A01 T00660006  RH  066%=      5-min Rain = 0
KBO1 230205Z 12013KT 07/01 A2973 RMK A01 T00660007  RH  066%=      5-min Rain = 0
KBO1 230206Z 12011KT 07/01 A2973 RMK A01 T00650007  RH  066%=      5-min Rain = 0
KBO1 230207Z 12012KT 06/01 A2973 RMK A01 T00640006  RH  066%=      5-min Rain = 0
KBO1 230208Z 12012KT 06/01 A2973 RMK A01 T00630006  RH  067%=      5-min Rain = 0
KBO1 230209Z 12012KT 06/01 A2973 RMK A01 T00630006  RH  067%=      5-min Rain = 0
KBO1 230210Z 12012KT 06/01 A2973 RMK A01 T00620007  RH  068%=      5-min Rain = 0
KBO1 230211Z 12013KT 06/01 A2973 RMK A01 T00610007  RH  068%=      5-min Rain = 0
KBO1 230212Z 12013KT 06/01 A2973 RMK A01 T00610007  RH  068%=      5-min Rain = 0
KBO1 230213Z 12012KT 06/01 A2973 RMK A01 T00610008  RH  069%=      5-min Rain = 0
KBO1 230214Z 12013KT 06/01 A2973 RMK A01 T00610009  RH  069%=      5-min Rain = 0
KBO1 230215Z 12013G19KT 06/01 A2973 RMK A01 T00610009  RH  069%=      5-min Rain = 0
KBO1 230216Z 12013KT 06/01 A2973 RMK A01 T00610011  RH  070%=      5-min Rain = 0
KBO1 230217Z 11013KT 06/01 A2973 RMK A01 T00610012  RH  071%=      5-min Rain = 0
KBO1 230218Z 12012KT 06/01 A2973 RMK A01 T00610012  RH  071%=      5-min Rain = 0
KBO1 230219Z 11011KT 06/01 A2973 RMK A01 T00600011  RH  071%=      5-min Rain = 0
KBO1 230220Z 11011KT 06/01 A2973 RMK A01 T00590011  RH  071%=      5-min Rain = 0
KBO1 230221Z 11012KT 06/01 A2973 RMK A01 T00580010  RH  071%=      5-min Rain = 0
KBO1 230222Z 11012KT 06/01 A2973 RMK A01 T00580011  RH  072%=      5-min Rain = 0
KBO1 230223Z 11013KT 06/01 A2973 RMK A01 T00580013  RH  073%=      5-min Rain = 0
KBO1 230224Z 11013KT 06/01 A2973 RMK A01 T00570013  RH  073%=      5-min Rain = 0
KBO1 230225Z 11012KT 06/01 A2973 RMK A01 T00570014  RH  074%=      5-min Rain = 0
KBO1 230226Z 11012KT 06/01 A2973 RMK A01 T00570014  RH  074%=      5-min Rain = 0
KBO1 230227Z 11011KT 06/01 A2973 RMK A01 T00560014  RH  074%=      5-min Rain = 0
KBO1 230228Z 11013KT 06/01 A2973 RMK A01 T00550014  RH  075%=      5-min Rain = 0
KBO1 230229Z 11013KT 06/02 A2973 RMK A01 T00550016  RH  076%=      5-min Rain = 0
KBO1 230230Z 11013KT 06/02 A2973 RMK A01 T00560016  RH  076%=      5-min Rain = 0
KBO1 230231Z 11014KT 06/02 A2973 RMK A01 T00560017  RH  076%=      5-min Rain = 0
KBO1 230232Z 11013KT 06/02 A2973 RMK A01 T00560018  RH  077%=      5-min Rain = 0
KBO1 230233Z 12014KT 06/02 A2973 RMK A01 T00550018  RH  077%=      5-min Rain = 0
KBO1 230234Z 11013KT 06/02 A2973 RMK A01 T00550019  RH  077%=      5-min Rain = 0
KBO1 230235Z 11012KT 05/02 A2973 RMK A01 T00540019  RH  078%=      5-min Rain = 0
KBO1 230236Z 12011KT 05/02 A2973 RMK A01 T00540018  RH  078%=      5-min Rain = 0
KBO1 230237Z 12011KT 05/02 A2973 RMK A01 T00530018  RH  078%=      5-min Rain = 0
KBO1 230238Z 12011KT 05/02 A2973 RMK A01 T00510017  RH  078%=      5-min Rain = 0
KBO1 230239Z 12011KT 05/02 A2973 RMK A01 T00500016  RH  079%=      5-min Rain = 0
KBO1 230240Z 12012KT 05/02 A2973 RMK A01 T00490016  RH  079%=      5-min Rain = 0
KBO1 230241Z 12011KT 05/02 A2973 RMK A01 T00480016  RH  080%=      5-min Rain = 0
KBO1 230242Z 12012KT 05/02 A2973 RMK A01 T00480016  RH  080%=      5-min Rain = 0
KBO1 230243Z 12013KT 05/02 A2973 RMK A01 T00480017  RH  080%=      5-min Rain = 0
KBO1 230244Z 12012KT 05/02 A2972 RMK A01 T00480018  RH  081%=      5-min Rain = 0
KBO1 230245Z 12012KT 05/02 A2972 RMK A01 T00480018  RH  081%=      5-min Rain = 0
KBO1 230246Z 12012KT 05/02 A2972 RMK A01 T00480018  RH  081%=      5-min Rain = 0
KBO1 230247Z 12012KT 05/02 A2972 RMK A01 T00480017  RH  081%=      5-min Rain = 0
KBO1 230248Z 12011KT 05/02 A2972 RMK A01 T00470017  RH  081%=      5-min Rain = 0
KBO1 230249Z 12011KT 05/02 A2972 RMK A01 T00460017  RH  081%=      5-min Rain = 0
KBO1 230250Z 12011KT 05/02 A2972 RMK A01 T00450016  RH  081%=      5-min Rain = 0
KBO1 230251Z 12011KT 05/02 A2972 RMK A01 T00450016  RH  082%=      5-min Rain = 0
KBO1 230252Z 12011KT 05/02 A2972 RMK A01 T00450017  RH  082%=      5-min Rain = 0
KBO1 230253Z 12011KT 05/02 A2972 RMK A01 T00450017  RH  082%=      5-min Rain = 0
KBO1 230254Z 11011KT 05/02 A2972 RMK A01 T00450017  RH  082%=      5-min Rain = 0
KBO1 230255Z 12010KT 04/02 A2972 RMK A01 T00440017  RH  083%=      5-min Rain = 0
KBO1 230256Z 12010KT 04/02 A2972 RMK A01 T00440017  RH  083%=      5-min Rain = 0
KBO1 230257Z 12010KT 04/02 A2972 RMK A01 T00430016  RH  083%=      5-min Rain = 0
KBO1 230258Z 12010KT 04/02 A2972 RMK A01 T00430017  RH  083%=      5-min Rain = 0
KBO1 230259Z 12010KT 04/02 A2972 RMK A01 T00430016  RH  083%=      5-min Rain = 0
KBO1 230300Z 12015KT 04/02 A2972 RMK A01 T00420017  RH  083%=      5-min Rain = 0
KBO1 230301Z 12013KT 04/02 A2973 RMK A01 T00430018  RH  084%=      5-min Rain = 0
KBO1 230302Z 12012KT 04/02 A2973 RMK A01 T00440018  RH  084%=      5-min Rain = 0
KBO1 230303Z 12013KT 04/02 A2973 RMK A01 T00430018  RH  083%=      5-min Rain = 0
KBO1 230304Z 12013KT 04/02 A2973 RMK A01 T00430018  RH  084%=      5-min Rain = 0
KBO1 230305Z 12014KT 04/02 A2973 RMK A01 T00430018  RH  084%=      5-min Rain = 0
KBO1 230306Z 12014KT 04/02 A2973 RMK A01 T00430019  RH  084%=      5-min Rain = 0
KBO1 230307Z 13013KT 04/02 A2973 RMK A01 T00430019  RH  084%=      5-min Rain = 0
KBO1 230308Z 12014KT 04/02 A2973 RMK A01 T00430019  RH  084%=      5-min Rain = 0
KBO1 230309Z 12012KT 04/02 A2973 RMK A01 T00430018  RH  084%=      5-min Rain = 0
KBO1 230310Z 12013KT 04/02 A2973 RMK A01 T00420018  RH  084%=      5-min Rain = 0
KBO1 230311Z 12013KT 04/02 A2973 RMK A01 T00420018  RH  085%=      5-min Rain = 0
KBO1 230312Z 12013KT 04/02 A2973 RMK A01 T00420018  RH  085%=      5-min Rain = 0
KBO1 230313Z 12013KT 04/02 A2973 RMK A01 T00410018  RH  085%=      5-min Rain = 0
KBO1 230314Z 12011KT 04/02 A2973 RMK A01 T00410018  RH  085%=      5-min Rain = 0
KBO1 230315Z 12011KT 04/02 A2973 RMK A01 T00410018  RH  085%=      5-min Rain = 0
KBO1 230316Z 12011KT 04/02 A2973 RMK A01 T00400018  RH  085%=      5-min Rain = 0
KBO1 230317Z 13010KT 04/02 A2973 RMK A01 T00400018  RH  086%=      5-min Rain = 0
KBO1 230318Z 13012KT 04/02 A2973 RMK A01 T00390017  RH  086%=      5-min Rain = 0
KBO1 230319Z 13013KT 04/02 A2973 RMK A01 T00390018  RH  086%=      5-min Rain = 0
KBO1 230320Z 13012KT 04/02 A2973 RMK A01 T00390018  RH  086%=      5-min Rain = 0
KBO1 230321Z 13012KT 04/02 A2973 RMK A01 T00380018  RH  087%=      5-min Rain = 0
KBO1 230322Z 13010KT 04/02 A2973 RMK A01 T00380018  RH  087%=      5-min Rain = 0
KBO1 230323Z 13011KT 04/02 A2973 RMK A01 T00380018  RH  087%=      5-min Rain = 0
KBO1 230324Z 13010KT 04/02 A2973 RMK A01 T00370018  RH  087%=      5-min Rain = 0
KBO1 230325Z 13010KT 04/02 A2973 RMK A01 T00380018  RH  087%=      5-min Rain = 0
KBO1 230326Z 13010KT 04/02 A2973 RMK A01 T00380018  RH  087%=      5-min Rain = 0
KBO1 230327Z 13009KT 04/02 A2973 RMK A01 T00380018  RH  087%=      5-min Rain = 0
KBO1 230328Z 13010KT 04/02 A2973 RMK A01 T00370018  RH  087%=      5-min Rain = 0
KBO1 230329Z 13010KT 04/02 A2973 RMK A01 T00370018  RH  087%=      5-min Rain = 0
KBO1 230330Z 14011KT 04/02 A2973 RMK A01 T00370018  RH  087%=      5-min Rain = 0
KBO1 230331Z 14011KT 04/02 A2974 RMK A01 T00370018  RH  087%=      5-min Rain = 0
KBO1 230332Z 14010KT 04/02 A2974 RMK A01 T00370018  RH  088%=      5-min Rain = 0
KBO1 230333Z 14010KT 04/02 A2974 RMK A01 T00360018  RH  087%=      5-min Rain = 0
KBO1 230334Z 14010KT 04/02 A2974 RMK A01 T00370018  RH  088%=      5-min Rain = 0
KBO1 230335Z 14010KT 04/02 A2974 RMK A01 T00370018  RH  088%=      5-min Rain = 0
KBO1 230336Z 14010KT 04/02 A2974 RMK A01 T00370018  RH  088%=      5-min Rain = 0
KBO1 230337Z 14010KT 04/02 A2974 RMK A01 T00360018  RH  088%=      5-min Rain = 0
KBO1 230338Z 14010KT 04/02 A2974 RMK A01 T00360018  RH  088%=      5-min Rain = 0
KBO1 230339Z 14012KT 04/02 A2974 RMK A01 T00360018  RH  088%=      5-min Rain = 0
KBO1 230340Z 14010KT 04/02 A2975 RMK A01 T00360018  RH  088%=      5-min Rain = 0
KBO1 230341Z 14011KT 04/02 A2975 RMK A01 T00360018  RH  088%=      5-min Rain = 0
KBO1 230342Z 14014KT 04/02 A2975 RMK A01 T00360018  RH  088%=      5-min Rain = 0
KBO1 230343Z 14012KT 04/02 A2974 RMK A01 T00360019  RH  089%=      5-min Rain = 0
KBO1 230344Z 14011KT 04/02 A2974 RMK A01 T00360019  RH  089%=      5-min Rain = 0
KBO1 230345Z 14012KT 04/02 A2974 RMK A01 T00360019  RH  089%=      5-min Rain = 0
KBO1 230346Z 14010KT 04/02 A2974 RMK A01 T00360019  RH  089%=      5-min Rain = 0
KBO1 230347Z 14011KT 04/02 A2974 RMK A01 T00360019  RH  089%=      5-min Rain = 0
KBO1 230348Z 14011KT 04/02 A2974 RMK A01 T00360020  RH  089%=      5-min Rain = 0
KBO1 230349Z 14011KT 04/02 A2974 RMK A01 T00360020  RH  089%=      5-min Rain = 0
KBO1 230350Z 14012KT 04/02 A2974 RMK A01 T00360020  RH  089%=      5-min Rain = 0
KBO1 230351Z 14010KT 04/02 A2974 RMK A01 T00360020  RH  089%=      5-min Rain = 0
KBO1 230352Z 13010KT 04/02 A2974 RMK A01 T00360020  RH  089%=      5-min Rain = 0
KBO1 230353Z 14012KT 04/02 A2974 RMK A01 T00360020  RH  089%=      5-min Rain = 0
KBO1 230354Z 14011KT 04/02 A2975 RMK A01 T00350020  RH  090%=      5-min Rain = 0
KBO1 230355Z 14013KT 04/02 A2975 RMK A01 T00350020  RH  090%=      5-min Rain = 0
KBO1 230356Z 14013KT 04/02 A2975 RMK A01 T00350020  RH  090%=      5-min Rain = 0
KBO1 230357Z 14012KT 04/02 A2975 RMK A01 T00350020  RH  090%=      5-min Rain = 0
KBO1 230358Z 14015KT 04/02 A2976 RMK A01 T00350019  RH  090%=      5-min Rain = 0
KBO1 230359Z 14014KT 04/02 A2975 RMK A01 T00350020  RH  090%=      5-min Rain = 0
KBO1 230400Z 14014KT 04/02 A2976 RMK A01 T00350020  RH  090%=      5-min Rain = 0
KBO1 230401Z 14014KT 04/02 A2976 RMK A01 T00350020  RH  090%=      5-min Rain = 0
KBO1 230402Z 14015G20KT 04/02 A2976 RMK A01 T00350020  RH  090%=      5-min Rain = 0
KBO1 230403Z 14015KT 04/02 A2976 RMK A01 T00350020  RH  090%=      5-min Rain = 0
KBO1 230404Z 14015KT 04/02 A2976 RMK A01 T00350020  RH  090%=      5-min Rain = 0
KBO1 230405Z 13014KT 04/02 A2975 RMK A01 T00350020  RH  090%=      5-min Rain = 0
KBO1 230406Z 13015KT 04/02 A2975 RMK A01 T00350020  RH  090%=      5-min Rain = 0
KBO1 230407Z 14015KT 04/02 A2975 RMK A01 T00350020  RH  090%=      5-min Rain = 0
KBO1 230408Z 14016KT 03/02 A2976 RMK A01 T00340020  RH  090%=      5-min Rain = 0
KBO1 230409Z 14015KT 03/02 A2976 RMK A01 T00340020  RH  091%=      5-min Rain = 0
KBO1 230410Z 14015KT 03/02 A2976 RMK A01 T00340020  RH  091%=      5-min Rain = 0
KBO1 230411Z 15014KT 03/02 A2976 RMK A01 T00340020  RH  091%=      5-min Rain = 0
KBO1 230412Z 15013KT 03/02 A2976 RMK A01 T00340020  RH  091%=      5-min Rain = 0
KBO1 230413Z 15013KT 03/02 A2976 RMK A01 T00340021  RH  091%=      5-min Rain = 0
KBO1 230414Z 15012KT 03/02 A2976 RMK A01 T00340020  RH  091%=      5-min Rain = 0
KBO1 230415Z 15013KT 03/02 A2976 RMK A01 T00340020  RH  091%=      5-min Rain = 0
KBO1 230416Z 15016KT 03/02 A2976 RMK A01 T00340020  RH  091%=      5-min Rain = 0
KBO1 230417Z 15015KT 03/02 A2976 RMK A01 T00330020  RH  091%=      5-min Rain = 0
KBO1 230418Z 15015KT 03/02 A2976 RMK A01 T00330020  RH  091%=      5-min Rain = 0
KBO1 230419Z 16015KT 03/02 A2976 RMK A01 T00320019  RH  091%=      5-min Rain = 0
KBO1 230420Z 15015KT 03/02 A2976 RMK A01 T00320020  RH  092%=      5-min Rain = 0
KBO1 230421Z 15014KT 03/02 A2976 RMK A01 T00320020  RH  092%=      5-min Rain = 0
KBO1 230422Z 15015KT 03/02 A2976 RMK A01 T00310020  RH  092%=      5-min Rain = 0
KBO1 230423Z 15014KT 03/02 A2976 RMK A01 T00320020  RH  092%=      5-min Rain = 0
KBO1 230424Z 15014KT 03/02 A2976 RMK A01 T00310020  RH  092%=      5-min Rain = 0
KBO1 230425Z 15016KT 03/02 A2976 RMK A01 T00320020  RH  092%=      5-min Rain = 0
KBO1 230426Z 15015KT 03/02 A2976 RMK A01 T00310020  RH  093%=      5-min Rain = 0
KBO1 230427Z 15012KT 03/02 A2976 RMK A01 T00310020  RH  093%=      5-min Rain = 0
KBO1 230428Z 14014KT 03/02 A2976 RMK A01 T00310021  RH  093%=      5-min Rain = 0
KBO1 230429Z 14014KT 03/02 A2976 RMK A01 T00310021  RH  093%=      5-min Rain = 0
KBO1 230430Z 14015KT 03/02 A2976 RMK A01 T00310021  RH  093%=      5-min Rain = 0
KBO1 230431Z 14013KT 03/02 A2976 RMK A01 T00310021  RH  093%=      5-min Rain = 0
KBO1 230432Z 14014KT 03/02 A2976 RMK A01 T00310021  RH  093%=      5-min Rain = 0
KBO1 230433Z 14016KT 03/02 A2975 RMK A01 T00310020  RH  093%=      5-min Rain = 0
KBO1 230434Z 14014KT 03/02 A2976 RMK A01 T00310020  RH  093%=      5-min Rain = 0
KBO1 230435Z 14014KT 03/02 A2976 RMK A01 T00310020  RH  093%=      5-min Rain = 0
KBO1 230436Z 14015KT 03/02 A2976 RMK A01 T00310020  RH  093%=      5-min Rain = 0
KBO1 230437Z 14013KT 03/02 A2976 RMK A01 T00310020  RH  093%=      5-min Rain = 0
KBO1 230438Z 14012KT 03/02 A2976 RMK A01 T00310020  RH  093%=      5-min Rain = 0
KBO1 230439Z 14014KT 03/02 A2976 RMK A01 T00310020  RH  093%=      5-min Rain = 0
KBO1 230440Z 15014KT 03/02 A2976 RMK A01 T00310020  RH  093%=      5-min Rain = 0
KBO1 230441Z 15015KT 03/02 A2977 RMK A01 T00310020  RH  093%=      5-min Rain = 0
KBO1 230442Z 15017KT 03/02 A2977 RMK A01 T00310021  RH  093%=      5-min Rain = 0
KBO1 230443Z 15013KT 03/02 A2977 RMK A01 T00310020  RH  093%=      5-min Rain = 0
KBO1 230444Z 15015KT 03/02 A2977 RMK A01 T00310021  RH  093%=      5-min Rain = 0
KBO1 230445Z 15013KT 03/02 A2977 RMK A01 T00310021  RH  093%=      5-min Rain = 0
KBO1 230446Z 15013KT 03/02 A2977 RMK A01 T00310021  RH  093%=      5-min Rain = 0
KBO1 230447Z 15012KT 03/02 A2977 RMK A01 T00300021  RH  093%=      5-min Rain = 0
KBO1 230448Z 15012KT 03/02 A2976 RMK A01 T00310021  RH  093%=      5-min Rain = 0
KBO1 230449Z 15010KT 03/02 A2976 RMK A01 T00300021  RH  093%=      5-min Rain = 0
KBO1 230450Z 16011KT 03/02 A2976 RMK A01 T00300021  RH  094%=      5-min Rain = 0
KBO1 230451Z 16011KT 03/02 A2976 RMK A01 T00300021  RH  094%=      5-min Rain = 0
KBO1 230452Z 16010KT 03/02 A2976 RMK A01 T00300021  RH  094%=      5-min Rain = 0
KBO1 230453Z 15010KT 03/02 A2976 RMK A01 T00300021  RH  094%=      5-min Rain = 0
KBO1 230454Z 15009KT 03/02 A2976 RMK A01 T00300021  RH  094%=      5-min Rain = 0
KBO1 230455Z 15009KT 03/02 A2975 RMK A01 T00300021  RH  094%=      5-min Rain = 0
KBO1 230456Z 16009KT 03/02 A2976 RMK A01 T00300021  RH  094%=      5-min Rain = 0
KBO1 230457Z 16009KT 03/02 A2976 RMK A01 T00300021  RH  094%=      5-min Rain = 0
KBO1 230458Z 17009KT 03/02 A2976 RMK A01 T00300022  RH  094%=      5-min Rain = 0
KBO1 230459Z 17008KT 03/02 A2976 RMK A01 T00300022  RH  094%=      5-min Rain = 0
KBO1 230500Z 16008KT 03/02 A2976 RMK A01 T00300022  RH  095%=      5-min Rain = 0
KBO1 230501Z 16008KT 03/02 A2975 RMK A01 T00300022  RH  095%=      5-min Rain = 0
KBO1 230502Z 17008KT 03/02 A2975 RMK A01 T00300022  RH  095%=      5-min Rain = 0
KBO1 230503Z 17009KT 03/02 A2975 RMK A01 T00300022  RH  095%=      5-min Rain = 0
KBO1 230504Z 17009KT 03/02 A2975 RMK A01 T00300023  RH  095%=      5-min Rain = 0
KBO1 230505Z 17008KT 03/02 A2975 RMK A01 T00300023  RH  095%=      5-min Rain = 0
KBO1 230506Z 16008KT 03/02 A2975 RMK A01 T00300023  RH  096%=      5-min Rain = 0
KBO1 230507Z 16009KT 03/02 A2974 RMK A01 T00300024  RH  096%=      5-min Rain = 0
KBO1 230508Z 16007KT 03/02 A2974 RMK A01 T00300024  RH  096%=      5-min Rain = 0
KBO1 230509Z 16006KT 03/02 A2974 RMK A01 T00290024  RH  096%=      5-min Rain = 0
KBO1 230510Z 16006KT 03/02 A2974 RMK A01 T00290024  RH  096%=      5-min Rain = 0
KBO1 230511Z 16007KT 03/02 A2974 RMK A01 T00290024  RH  096%=      5-min Rain = 0
KBO1 230512Z 16006KT 03/02 A2974 RMK A01 T00290024  RH  097%=      5-min Rain = 0
KBO1 230513Z 15007KT 03/03 A2974 RMK A01 T00290025  RH  097%=      5-min Rain = 0.01
KBO1 230514Z 15009KT 03/03 A2974 RMK A01 T00290025  RH  097%=      5-min Rain = 0
KBO1 230515Z 15008KT 03/03 A2973 RMK A01 T00290025  RH  097%=      5-min Rain = 0
KBO1 230516Z 15007KT 03/03 A2973 RMK A01 T00290025  RH  097%=      5-min Rain = 0
KBO1 230517Z 14006KT 03/03 A2973 RMK A01 T00290025  RH  097%=      5-min Rain = 0
KBO1 230518Z 15008KT 03/03 A2973 RMK A01 T00290026  RH  097%=      5-min Rain = 0
KBO1 230519Z 16007KT 03/03 A2973 RMK A01 T00290026  RH  098%=      5-min Rain = 0
KBO1 230520Z 17008KT 03/03 A2973 RMK A01 T00290026  RH  098%=      5-min Rain = 0
KBO1 230521Z 16007KT 03/03 A2973 RMK A01 T00290026  RH  098%=      5-min Rain = 0
KBO1 230522Z 16007KT 03/03 A2973 RMK A01 T00290026  RH  098%=      5-min Rain = 0
KBO1 230523Z 15007KT 03/03 A2973 RMK A01 T00290026  RH  098%=      5-min Rain = 0
KBO1 230524Z 15007KT 03/03 A2973 RMK A01 T00290026  RH  098%=      5-min Rain = 0
KBO1 230525Z 15007KT 03/03 A2973 RMK A01 T00290027  RH  098%=      5-min Rain = 0
KBO1 230526Z 16008KT 03/03 A2973 RMK A01 T00290027  RH  098%=      5-min Rain = 0
KBO1 230527Z 15008KT 03/03 A2973 RMK A01 T00290027  RH  098%=      5-min Rain = 0
KBO1 230528Z 15008KT 03/03 A2973 RMK A01 T00290027  RH  098%=      5-min Rain = 0
KBO1 230529Z 16008KT 03/03 A2973 RMK A01 T00290027  RH  098%=      5-min Rain = 0
KBO1 230530Z 16007KT 03/03 A2973 RMK A01 T00290027  RH  099%=      5-min Rain = 0
KBO1 230531Z 16008KT 03/03 A2973 RMK A01 T00290027  RH  099%=      5-min Rain = 0
KBO1 230532Z 16007KT 03/03 A2973 RMK A01 T00290027  RH  099%=      5-min Rain = 0
KBO1 230533Z 17007KT 03/03 A2973 RMK A01 T00290028  RH  099%=      5-min Rain = 0
KBO1 230534Z 17007KT 03/03 A2973 RMK A01 T00290028  RH  099%=      5-min Rain = 0
KBO1 230535Z 17007KT 03/03 A2973 RMK A01 T00290028  RH  099%=      5-min Rain = 0
KBO1 230536Z 18006KT 03/03 A2973 RMK A01 T00290028  RH  099%=      5-min Rain = 0
KBO1 230537Z 18006KT 03/03 A2973 RMK A01 T00290028  RH  099%=      5-min Rain = 0
KBO1 230538Z 19007KT 03/03 A2973 RMK A01 T00290028  RH  099%=      5-min Rain = 0
KBO1 230539Z 18007KT 03/03 A2973 RMK A01 T00290028  RH  099%=      5-min Rain = 0
KBO1 230540Z 18006KT 03/03 A2973 RMK A01 T00290028  RH  099%=      5-min Rain = 0
KBO1 230541Z 18007KT 03/03 A2972 RMK A01 T00290028  RH  099%=      5-min Rain = 0
KBO1 230542Z 16007KT 03/03 A2972 RMK A01 T00300029  RH  099%=      5-min Rain = 0
KBO1 230543Z 16007KT 03/03 A2972 RMK A01 T00300029  RH  099%=      5-min Rain = 0
KBO1 230544Z 16006KT 03/03 A2972 RMK A01 T00300029  RH  099%=      5-min Rain = 0
KBO1 230545Z 16006KT 03/03 A2972 RMK A01 T00300029  RH  100%=      5-min Rain = 0
KBO1 230546Z 17007KT 03/03 A2972 RMK A01 T00300029  RH  100%=      5-min Rain = 0
KBO1 230547Z 17007KT 03/03 A2972 RMK A01 T00300029  RH  100%=      5-min Rain = 0
KBO1 230548Z 17007KT 03/03 A2972 RMK A01 T00300029  RH  100%=      5-min Rain = 0
KBO1 230549Z 18007KT 03/03 A2972 RMK A01 T00300030  RH  100%=      5-min Rain = 0
KBO1 230550Z 19007KT 03/03 A2972 RMK A01 T00300029  RH  100%=      5-min Rain = 0
KBO1 230551Z 19007KT 03/03 A2973 RMK A01 T00300030  RH  100%=      5-min Rain = 0
KBO1 230552Z 19007KT 03/03 A2973 RMK A01 T00300030  RH  100%=      5-min Rain = 0
KBO1 230553Z 20008KT 03/03 A2973 RMK A01 T00300030  RH  100%=      5-min Rain = 0
KBO1 230554Z 20007KT 03/03 A2973 RMK A01 T00300030  RH  100%=      5-min Rain = 0
KBO1 230555Z 19008KT 03/03 A2973 RMK A01 T00300030  RH  100%=      5-min Rain = 0.01
KBO1 230556Z 18009KT 03/03 A2973 RMK A01 T00300030  RH  100%=      5-min Rain = 0
KBO1 230557Z 17008KT 03/03 A2973 RMK A01 T00300030  RH  100%=      5-min Rain = 0
KBO1 230558Z 18008KT 03/03 A2973 RMK A01 T00300030  RH  100%=      5-min Rain = 0.01
KBO1 230559Z 18008KT 03/03 A2973 RMK A01 T00300030  RH  100%=      5-min Rain = 0

Page generated in 0.1232 seconds.